﻿<?xml version="1.0" encoding="utf-8"?><gpx creator="Garmin Desktop App" version="1.1" xsi:schemaLocation="http://www.topografix.com/GPX/1/1 http://www.topografix.com/GPX/1/1/gpx.xsd http://www.garmin.com/xmlschemas/WaypointExtension/v1 http://www8.garmin.com/xmlschemas/WaypointExtensionv1.xsd http://www.garmin.com/xmlschemas/TrackPointExtension/v1 http://www.garmin.com/xmlschemas/TrackPointExtensionv1.xsd http://www.garmin.com/xmlschemas/GpxExtensions/v3 http://www8.garmin.com/xmlschemas/GpxExtensionsv3.xsd http://www.garmin.com/xmlschemas/ActivityExtension/v1 http://www8.garmin.com/xmlschemas/ActivityExtensionv1.xsd http://www.garmin.com/xmlschemas/AdventuresExtensions/v1 http://www8.garmin.com/xmlschemas/AdventuresExtensionv1.xsd http://www.garmin.com/xmlschemas/PressureExtension/v1 http://www.garmin.com/xmlschemas/PressureExtensionv1.xsd http://www.garmin.com/xmlschemas/TripExtensions/v1 http://www.garmin.com/xmlschemas/TripExtensionsv1.xsd http://www.garmin.com/xmlschemas/TripMetaDataExtensions/v1 http://www.garmin.com/xmlschemas/TripMetaDataExtensionsv1.xsd http://www.garmin.com/xmlschemas/ViaPointTransportationModeExtensions/v1 http://www.garmin.com/xmlschemas/ViaPointTransportationModeExtensionsv1.xsd http://www.garmin.com/xmlschemas/CreationTimeExtension/v1 http://www.garmin.com/xmlschemas/CreationTimeExtensionsv1.xsd http://www.garmin.com/xmlschemas/AccelerationExtension/v1 http://www.garmin.com/xmlschemas/AccelerationExtensionv1.xsd http://www.garmin.com/xmlschemas/PowerExtension/v1 http://www.garmin.com/xmlschemas/PowerExtensionv1.xsd http://www.garmin.com/xmlschemas/VideoExtension/v1 http://www.garmin.com/xmlschemas/VideoExtensionv1.xsd" xmlns="http://www.topografix.com/GPX/1/1" xmlns:xsi="http://www.w3.org/2001/XMLSchema-instance" xmlns:wptx1="http://www.garmin.com/xmlschemas/WaypointExtension/v1" xmlns:gpxtrx="http://www.garmin.com/xmlschemas/GpxExtensions/v3" xmlns:gpxtpx="http://www.garmin.com/xmlschemas/TrackPointExtension/v1" xmlns:gpxx="http://www.garmin.com/xmlschemas/GpxExtensions/v3" xmlns:trp="http://www.garmin.com/xmlschemas/TripExtensions/v1" xmlns:adv="http://www.garmin.com/xmlschemas/AdventuresExtensions/v1" xmlns:prs="http://www.garmin.com/xmlschemas/PressureExtension/v1" xmlns:tmd="http://www.garmin.com/xmlschemas/TripMetaDataExtensions/v1" xmlns:vptm="http://www.garmin.com/xmlschemas/ViaPointTransportationModeExtensions/v1" xmlns:ctx="http://www.garmin.com/xmlschemas/CreationTimeExtension/v1" xmlns:gpxacc="http://www.garmin.com/xmlschemas/AccelerationExtension/v1" xmlns:gpxpx="http://www.garmin.com/xmlschemas/PowerExtension/v1" xmlns:vidx1="http://www.garmin.com/xmlschemas/VideoExtension/v1">

  <metadata>
    <link href="http://www.garmin.com">
      <text>Garmin International</text>
    </link>
    <time>2020-12-14T19:32:29Z</time>
    <bounds maxlat="50.319900568574667" maxlon="6.388546451926231" minlat="50.264507587999105" minlon="6.340921064838767" />
  </metadata>

  <trk>
    <name>eifel r revival r zwart mn 20 km ger</name>
    <extensions>
      <gpxx:TrackExtension>
        <gpxx:DisplayColor>Red</gpxx:DisplayColor>
      </gpxx:TrackExtension>
    </extensions>
    <trkseg>
      <trkpt lat="50.319716334342957" lon="6.356382239609957">
        <ele>526.38999999999999</ele>
        <time>2017-07-16T07:59:40Z</time>
      </trkpt>
      <trkpt lat="50.319217778742313" lon="6.355414632707834">
        <ele>524.76999999999998</ele>
        <time>2017-07-16T07:59:53Z</time>
      </trkpt>
      <trkpt lat="50.318611431866884" lon="6.353823412209749">
        <ele>523.90999999999997</ele>
        <time>2017-07-16T08:00:10Z</time>
      </trkpt>
      <trkpt lat="50.318405069410801" lon="6.352692861109972">
        <ele>522.83000000000004</ele>
        <time>2017-07-16T08:00:24Z</time>
      </trkpt>
      <trkpt lat="50.318265678361058" lon="6.352375857532024">
        <ele>521.08000000000004</ele>
        <time>2017-07-16T08:00:41Z</time>
      </trkpt>
      <trkpt lat="50.318177752196789" lon="6.352147199213505">
        <ele>517.45000000000005</ele>
        <time>2017-07-16T08:00:54Z</time>
      </trkpt>
      <trkpt lat="50.318172639235854" lon="6.352129513397813">
        <ele>524.19000000000005</ele>
        <time>2017-07-16T08:00:55Z</time>
      </trkpt>
      <trkpt lat="50.318158725276589" lon="6.35209514759481">
        <ele>520.29999999999995</ele>
        <time>2017-07-16T08:00:57Z</time>
      </trkpt>
      <trkpt lat="50.318154031410813" lon="6.352074947208166">
        <ele>520.30999999999995</ele>
        <time>2017-07-16T08:00:58Z</time>
      </trkpt>
      <trkpt lat="50.318055795505643" lon="6.351882666349411">
        <ele>519.40999999999997</ele>
        <time>2017-07-16T08:01:11Z</time>
      </trkpt>
      <trkpt lat="50.317938197404146" lon="6.351619893684983">
        <ele>519.38999999999999</ele>
        <time>2017-07-16T08:01:28Z</time>
      </trkpt>
      <trkpt lat="50.317859910428524" lon="6.351434318348765">
        <ele>518.62</ele>
        <time>2017-07-16T08:01:40Z</time>
      </trkpt>
      <trkpt lat="50.317758321762085" lon="6.351139359176159">
        <ele>517.67999999999995</ele>
        <time>2017-07-16T08:01:56Z</time>
      </trkpt>
      <trkpt lat="50.317649273201823" lon="6.35085160844028">
        <ele>517.69000000000005</ele>
        <time>2017-07-16T08:02:13Z</time>
      </trkpt>
      <trkpt lat="50.317538129165769" lon="6.350505519658327">
        <ele>516.05999999999995</ele>
        <time>2017-07-16T08:02:33Z</time>
      </trkpt>
      <trkpt lat="50.317477528005838" lon="6.350239058956504">
        <ele>516.09000000000003</ele>
        <time>2017-07-16T08:02:48Z</time>
      </trkpt>
      <trkpt lat="50.317393373697996" lon="6.349900094792247">
        <ele>516.08000000000004</ele>
        <time>2017-07-16T08:03:04Z</time>
      </trkpt>
      <trkpt lat="50.317281307652593" lon="6.34958753362298">
        <ele>516.10000000000002</ele>
        <time>2017-07-16T08:03:21Z</time>
      </trkpt>
      <trkpt lat="50.317181143909693" lon="6.349315624684095">
        <ele>516.11000000000001</ele>
        <time>2017-07-16T08:03:37Z</time>
      </trkpt>
      <trkpt lat="50.317109981551766" lon="6.349029382690787">
        <ele>516.09000000000003</ele>
        <time>2017-07-16T08:03:54Z</time>
      </trkpt>
      <trkpt lat="50.317072430625558" lon="6.34875537827611">
        <ele>515.01999999999998</ele>
        <time>2017-07-16T08:04:09Z</time>
      </trkpt>
      <trkpt lat="50.31705348752439" lon="6.348505597561598">
        <ele>513.48000000000002</ele>
        <time>2017-07-16T08:04:24Z</time>
      </trkpt>
      <trkpt lat="50.31703638844192" lon="6.348218433558941">
        <ele>513.47000000000003</ele>
        <time>2017-07-16T08:04:39Z</time>
      </trkpt>
      <trkpt lat="50.317037142813206" lon="6.348183313384652">
        <ele>513.48000000000002</ele>
        <time>2017-07-16T08:04:41Z</time>
      </trkpt>
      <trkpt lat="50.31703244894743" lon="6.348151294514537">
        <ele>512.15999999999997</ele>
        <time>2017-07-16T08:04:43Z</time>
      </trkpt>
      <trkpt lat="50.317005543038249" lon="6.34788366034627">
        <ele>511.38999999999999</ele>
        <time>2017-07-16T08:04:56Z</time>
      </trkpt>
      <trkpt lat="50.316958939656615" lon="6.347628347575665">
        <ele>509.69999999999999</ele>
        <time>2017-07-16T08:05:11Z</time>
      </trkpt>
      <trkpt lat="50.31690739095211" lon="6.347327940165997">
        <ele>507.24000000000001</ele>
        <time>2017-07-16T08:05:29Z</time>
      </trkpt>
      <trkpt lat="50.316900433972478" lon="6.34705594740808">
        <ele>504.43000000000001</ele>
        <time>2017-07-16T08:05:43Z</time>
      </trkpt>
      <trkpt lat="50.316885514184833" lon="6.346788899973035">
        <ele>501.91000000000003</ele>
        <time>2017-07-16T08:05:58Z</time>
      </trkpt>
      <trkpt lat="50.316792810335755" lon="6.346646156162024">
        <ele>500.07999999999998</ele>
        <time>2017-07-16T08:06:10Z</time>
      </trkpt>
      <trkpt lat="50.316659118980169" lon="6.34646812453866">
        <ele>497.57999999999998</ele>
        <time>2017-07-16T08:06:24Z</time>
      </trkpt>
      <trkpt lat="50.316545544192195" lon="6.346312891691923">
        <ele>496</ele>
        <time>2017-07-16T08:06:37Z</time>
      </trkpt>
      <trkpt lat="50.316406153142452" lon="6.346114659681916">
        <ele>494.43000000000001</ele>
        <time>2017-07-16T08:06:52Z</time>
      </trkpt>
      <trkpt lat="50.316288135945797" lon="6.345928916707635">
        <ele>491.94</ele>
        <time>2017-07-16T08:07:07Z</time>
      </trkpt>
      <trkpt lat="50.316260643303394" lon="6.345889186486602">
        <ele>491.19</ele>
        <time>2017-07-16T08:07:11Z</time>
      </trkpt>
      <trkpt lat="50.316134495660663" lon="6.345788184553385">
        <ele>488.56</ele>
        <time>2017-07-16T08:07:28Z</time>
      </trkpt>
      <trkpt lat="50.316155953332782" lon="6.34548157453537">
        <ele>477.79000000000002</ele>
        <time>2017-07-16T08:08:12Z</time>
      </trkpt>
      <trkpt lat="50.316240107640624" lon="6.345132132992148">
        <ele>475.17000000000002</ele>
        <time>2017-07-16T08:08:28Z</time>
      </trkpt>
      <trkpt lat="50.316247148439288" lon="6.34511411190033">
        <ele>475.18000000000001</ele>
        <time>2017-07-16T08:08:29Z</time>
      </trkpt>
      <trkpt lat="50.316284447908401" lon="6.344934487715364">
        <ele>473.63999999999999</ele>
        <time>2017-07-16T08:08:37Z</time>
      </trkpt>
      <trkpt lat="50.316298026591539" lon="6.344906156882644">
        <ele>472.83999999999997</ele>
        <time>2017-07-16T08:08:39Z</time>
      </trkpt>
      <trkpt lat="50.316314119845629" lon="6.344689736142755">
        <ele>472.04000000000002</ele>
        <time>2017-07-16T08:08:44Z</time>
      </trkpt>
      <trkpt lat="50.31635032966733" lon="6.344415731728077">
        <ele>468.94</ele>
        <time>2017-07-16T08:08:55Z</time>
      </trkpt>
      <trkpt lat="50.316347647458315" lon="6.344285728409886">
        <ele>468.00999999999999</ele>
        <time>2017-07-16T08:09:00Z</time>
      </trkpt>
      <trkpt lat="50.316345635801554" lon="6.34409386664629">
        <ele>465.44999999999999</ele>
        <time>2017-07-16T08:09:17Z</time>
      </trkpt>
      <trkpt lat="50.31634739600122" lon="6.344023123383522">
        <ele>464.60000000000002</ele>
        <time>2017-07-16T08:09:21Z</time>
      </trkpt>
      <trkpt lat="50.316347815096378" lon="6.34397610090673">
        <ele>464.61000000000001</ele>
        <time>2017-07-16T08:09:25Z</time>
      </trkpt>
      <trkpt lat="50.316209848970175" lon="6.343586342409253">
        <ele>462.13</ele>
        <time>2017-07-16T08:09:40Z</time>
      </trkpt>
      <trkpt lat="50.315988985821605" lon="6.34338827803731">
        <ele>462.14999999999998</ele>
        <time>2017-07-16T08:09:53Z</time>
      </trkpt>
      <trkpt lat="50.315848169848323" lon="6.343222903087735">
        <ele>461.33999999999997</ele>
        <time>2017-07-16T08:10:08Z</time>
      </trkpt>
      <trkpt lat="50.315633341670036" lon="6.343120979145169">
        <ele>461.33999999999997</ele>
        <time>2017-07-16T08:10:24Z</time>
      </trkpt>
      <trkpt lat="50.315423039719462" lon="6.343026515096426">
        <ele>460.49000000000001</ele>
        <time>2017-07-16T08:10:40Z</time>
      </trkpt>
      <trkpt lat="50.315320864319801" lon="6.342984018847346">
        <ele>459.31999999999999</ele>
        <time>2017-07-16T08:10:55Z</time>
      </trkpt>
      <trkpt lat="50.315270656719804" lon="6.342964405193925">
        <ele>455.25</ele>
        <time>2017-07-16T08:11:04Z</time>
      </trkpt>
      <trkpt lat="50.315262358635664" lon="6.342957448214293">
        <ele>455.25</ele>
        <time>2017-07-16T08:11:05Z</time>
      </trkpt>
      <trkpt lat="50.315249199047685" lon="6.342946970835328">
        <ele>462.16000000000003</ele>
        <time>2017-07-16T08:11:06Z</time>
      </trkpt>
      <trkpt lat="50.315235536545515" lon="6.342940935865045">
        <ele>462.18000000000001</ele>
        <time>2017-07-16T08:11:07Z</time>
      </trkpt>
      <trkpt lat="50.315207792446017" lon="6.342927189543843">
        <ele>459.25</ele>
        <time>2017-07-16T08:11:09Z</time>
      </trkpt>
      <trkpt lat="50.315031101927161" lon="6.342607839033008">
        <ele>459.33999999999997</ele>
        <time>2017-07-16T08:11:26Z</time>
      </trkpt>
      <trkpt lat="50.31498852185905" lon="6.342378007248044">
        <ele>461.81999999999999</ele>
        <time>2017-07-16T08:11:35Z</time>
      </trkpt>
      <trkpt lat="50.314962370321155" lon="6.342194778844714">
        <ele>464.57999999999998</ele>
        <time>2017-07-16T08:11:41Z</time>
      </trkpt>
      <trkpt lat="50.314899170771241" lon="6.342160999774933">
        <ele>465.54000000000002</ele>
        <time>2017-07-16T08:11:46Z</time>
      </trkpt>
      <trkpt lat="50.314748296514153" lon="6.342505412176251">
        <ele>465.47000000000003</ele>
        <time>2017-07-16T08:12:04Z</time>
      </trkpt>
      <trkpt lat="50.314646288752556" lon="6.342937080189586">
        <ele>466.23000000000002</ele>
        <time>2017-07-16T08:12:21Z</time>
      </trkpt>
      <trkpt lat="50.314569678157568" lon="6.343303788453341">
        <ele>466.23000000000002</ele>
        <time>2017-07-16T08:12:37Z</time>
      </trkpt>
      <trkpt lat="50.314551321789622" lon="6.343680638819933">
        <ele>466.22000000000003</ele>
        <time>2017-07-16T08:12:53Z</time>
      </trkpt>
      <trkpt lat="50.314501617103815" lon="6.343974759802222">
        <ele>466.22000000000003</ele>
        <time>2017-07-16T08:13:08Z</time>
      </trkpt>
      <trkpt lat="50.314448643475771" lon="6.34439880028367">
        <ele>466.20999999999998</ele>
        <time>2017-07-16T08:13:27Z</time>
      </trkpt>
      <trkpt lat="50.314425006508827" lon="6.344707338139415">
        <ele>466.22000000000003</ele>
        <time>2017-07-16T08:13:41Z</time>
      </trkpt>
      <trkpt lat="50.314419642090797" lon="6.344843208789825">
        <ele>463.97000000000003</ele>
        <time>2017-07-16T08:13:47Z</time>
      </trkpt>
      <trkpt lat="50.314381252974272" lon="6.345304884016514">
        <ele>463.18000000000001</ele>
        <time>2017-07-16T08:14:06Z</time>
      </trkpt>
      <trkpt lat="50.314306821674109" lon="6.345636388286948">
        <ele>463.19</ele>
        <time>2017-07-16T08:14:20Z</time>
      </trkpt>
      <trkpt lat="50.314289974048734" lon="6.345997899770737">
        <ele>462.25</ele>
        <time>2017-07-16T08:14:37Z</time>
      </trkpt>
      <trkpt lat="50.314240520820022" lon="6.346394615247846">
        <ele>462.25999999999999</ele>
        <time>2017-07-16T08:14:54Z</time>
      </trkpt>
      <trkpt lat="50.314233647659421" lon="6.346774650737643">
        <ele>462.25999999999999</ele>
        <time>2017-07-16T08:15:10Z</time>
      </trkpt>
      <trkpt lat="50.314232222735882" lon="6.347082015126944">
        <ele>462.25999999999999</ele>
        <time>2017-07-16T08:15:24Z</time>
      </trkpt>
      <trkpt lat="50.314211938530207" lon="6.347284018993378">
        <ele>462.26999999999998</ele>
        <time>2017-07-16T08:15:33Z</time>
      </trkpt>
      <trkpt lat="50.314243286848068" lon="6.347630107775331">
        <ele>462.25999999999999</ele>
        <time>2017-07-16T08:15:49Z</time>
      </trkpt>
      <trkpt lat="50.314263235777617" lon="6.347756255418062">
        <ele>464.69</ele>
        <time>2017-07-16T08:15:55Z</time>
      </trkpt>
      <trkpt lat="50.314269941300154" lon="6.348105780780315">
        <ele>464.69</ele>
        <time>2017-07-16T08:16:10Z</time>
      </trkpt>
      <trkpt lat="50.314192827790976" lon="6.348460838198662">
        <ele>464.69</ele>
        <time>2017-07-16T08:16:27Z</time>
      </trkpt>
      <trkpt lat="50.314049161970615" lon="6.34868941269815">
        <ele>465.44999999999999</ele>
        <time>2017-07-16T08:16:42Z</time>
      </trkpt>
      <trkpt lat="50.313803823664784" lon="6.348905498161912">
        <ele>465.44999999999999</ele>
        <time>2017-07-16T08:17:01Z</time>
      </trkpt>
      <trkpt lat="50.313578015193343" lon="6.349012367427349">
        <ele>465.44999999999999</ele>
        <time>2017-07-16T08:17:17Z</time>
      </trkpt>
      <trkpt lat="50.313331251963973" lon="6.349094090983272">
        <ele>466.26999999999998</ele>
        <time>2017-07-16T08:17:34Z</time>
      </trkpt>
      <trkpt lat="50.313096307218075" lon="6.349189225584269">
        <ele>466.25999999999999</ele>
        <time>2017-07-16T08:17:50Z</time>
      </trkpt>
      <trkpt lat="50.312848705798388" lon="6.349283857271075">
        <ele>467.23000000000002</ele>
        <time>2017-07-16T08:18:07Z</time>
      </trkpt>
      <trkpt lat="50.312661873176694" lon="6.349358037114143">
        <ele>468.00999999999999</ele>
        <time>2017-07-16T08:18:20Z</time>
      </trkpt>
      <trkpt lat="50.312557350844145" lon="6.349382679909468">
        <ele>468.07999999999998</ele>
        <time>2017-07-16T08:18:28Z</time>
      </trkpt>
      <trkpt lat="50.312360376119614" lon="6.349189896136522">
        <ele>468.88</ele>
        <time>2017-07-16T08:18:44Z</time>
      </trkpt>
      <trkpt lat="50.31217941083014" lon="6.348897032439709">
        <ele>470.43000000000001</ele>
        <time>2017-07-16T08:19:00Z</time>
      </trkpt>
      <trkpt lat="50.311972880735993" lon="6.348534347489476">
        <ele>472.04000000000002</ele>
        <time>2017-07-16T08:19:21Z</time>
      </trkpt>
      <trkpt lat="50.311783533543348" lon="6.348215667530894">
        <ele>473.25</ele>
        <time>2017-07-16T08:19:39Z</time>
      </trkpt>
      <trkpt lat="50.311606004834175" lon="6.347830099985004">
        <ele>476.60000000000002</ele>
        <time>2017-07-16T08:20:00Z</time>
      </trkpt>
      <trkpt lat="50.311588905751705" lon="6.34746883995831">
        <ele>479.36000000000001</ele>
        <time>2017-07-16T08:20:17Z</time>
      </trkpt>
      <trkpt lat="50.311565520241857" lon="6.347352582961321">
        <ele>480.88</ele>
        <time>2017-07-16T08:20:29Z</time>
      </trkpt>
      <trkpt lat="50.311361672356725" lon="6.34732861071825">
        <ele>480.86000000000001</ele>
        <time>2017-07-16T08:20:44Z</time>
      </trkpt>
      <trkpt lat="50.311089931055903" lon="6.347388373687863">
        <ele>480.88999999999999</ele>
        <time>2017-07-16T08:21:02Z</time>
      </trkpt>
      <trkpt lat="50.310833612456918" lon="6.34743413887918">
        <ele>482.64999999999998</ele>
        <time>2017-07-16T08:21:19Z</time>
      </trkpt>
      <trkpt lat="50.310570253059268" lon="6.347467750310898">
        <ele>484.32999999999998</ele>
        <time>2017-07-16T08:21:37Z</time>
      </trkpt>
      <trkpt lat="50.310391634702682" lon="6.347484011203051">
        <ele>485.83999999999997</ele>
        <time>2017-07-16T08:21:50Z</time>
      </trkpt>
      <trkpt lat="50.310324747115374" lon="6.347507648169994">
        <ele>485.89999999999998</ele>
        <time>2017-07-16T08:21:55Z</time>
      </trkpt>
      <trkpt lat="50.310034900903702" lon="6.347649889066815">
        <ele>486.75</ele>
        <time>2017-07-16T08:22:15Z</time>
      </trkpt>
      <trkpt lat="50.309691829606891" lon="6.347741419449449">
        <ele>488.64999999999998</ele>
        <time>2017-07-16T08:22:37Z</time>
      </trkpt>
      <trkpt lat="50.309441210702062" lon="6.347800511866808">
        <ele>491.98000000000002</ele>
        <time>2017-07-16T08:22:54Z</time>
      </trkpt>
      <trkpt lat="50.309204421937466" lon="6.347948117181659">
        <ele>493.63999999999999</ele>
        <time>2017-07-16T08:23:12Z</time>
      </trkpt>
      <trkpt lat="50.308960592374206" lon="6.348322033882141">
        <ele>493.56</ele>
        <time>2017-07-16T08:23:35Z</time>
      </trkpt>
      <trkpt lat="50.308797983452678" lon="6.348545495420694">
        <ele>493.54000000000002</ele>
        <time>2017-07-16T08:23:50Z</time>
      </trkpt>
      <trkpt lat="50.308694299310446" lon="6.348677845671773">
        <ele>491.17000000000002</ele>
        <time>2017-07-16T08:24:04Z</time>
      </trkpt>
      <trkpt lat="50.308586340397596" lon="6.348832491785288">
        <ele>488.01999999999998</ele>
        <time>2017-07-16T08:24:16Z</time>
      </trkpt>
      <trkpt lat="50.308477710932493" lon="6.349003482609987">
        <ele>484.94999999999999</ele>
        <time>2017-07-16T08:24:26Z</time>
      </trkpt>
      <trkpt lat="50.308291716501117" lon="6.349281258881092">
        <ele>484.01999999999998</ele>
        <time>2017-07-16T08:24:41Z</time>
      </trkpt>
      <trkpt lat="50.308314180001616" lon="6.349609913304448">
        <ele>484.11000000000001</ele>
        <time>2017-07-16T08:24:54Z</time>
      </trkpt>
      <trkpt lat="50.308434627950191" lon="6.350195473060012">
        <ele>484.05000000000001</ele>
        <time>2017-07-16T08:25:18Z</time>
      </trkpt>
      <trkpt lat="50.308526661247015" lon="6.350639378651977">
        <ele>484.06999999999999</ele>
        <time>2017-07-16T08:25:37Z</time>
      </trkpt>
      <trkpt lat="50.308576114475727" lon="6.350829480215907">
        <ele>486.41000000000003</ele>
        <time>2017-07-16T08:25:46Z</time>
      </trkpt>
      <trkpt lat="50.308656580746174" lon="6.351272379979491">
        <ele>490.35000000000002</ele>
        <time>2017-07-16T08:26:04Z</time>
      </trkpt>
      <trkpt lat="50.308661526069045" lon="6.351296938955784">
        <ele>490.36000000000001</ele>
        <time>2017-07-16T08:26:05Z</time>
      </trkpt>
      <trkpt lat="50.308757331222296" lon="6.351706981658936">
        <ele>490.29000000000002</ele>
        <time>2017-07-16T08:26:21Z</time>
      </trkpt>
      <trkpt lat="50.308838216587901" lon="6.35218458250165">
        <ele>490.20999999999998</ele>
        <time>2017-07-16T08:26:41Z</time>
      </trkpt>
      <trkpt lat="50.308825895190239" lon="6.352564198896289">
        <ele>490.18000000000001</ele>
        <time>2017-07-16T08:26:59Z</time>
      </trkpt>
      <trkpt lat="50.308807706460357" lon="6.352916155010462">
        <ele>490.24000000000001</ele>
        <time>2017-07-16T08:27:14Z</time>
      </trkpt>
      <trkpt lat="50.308791864663363" lon="6.353254951536655">
        <ele>490.20999999999998</ele>
        <time>2017-07-16T08:27:28Z</time>
      </trkpt>
      <trkpt lat="50.308784823864698" lon="6.353330053389072">
        <ele>487.93000000000001</ele>
        <time>2017-07-16T08:27:31Z</time>
      </trkpt>
      <trkpt lat="50.308724390342832" lon="6.353710759431124">
        <ele>487.17000000000002</ele>
        <time>2017-07-16T08:27:47Z</time>
      </trkpt>
      <trkpt lat="50.308657167479396" lon="6.353997504338622">
        <ele>486.33999999999997</ele>
        <time>2017-07-16T08:28:01Z</time>
      </trkpt>
      <trkpt lat="50.308584664016962" lon="6.354258935898542">
        <ele>485.45999999999998</ele>
        <time>2017-07-16T08:28:14Z</time>
      </trkpt>
      <trkpt lat="50.308516519144177" lon="6.354542411863804">
        <ele>484.62</ele>
        <time>2017-07-16T08:28:28Z</time>
      </trkpt>
      <trkpt lat="50.308439740911126" lon="6.354795629158616">
        <ele>483.77999999999997</ele>
        <time>2017-07-16T08:28:38Z</time>
      </trkpt>
      <trkpt lat="50.308282161131501" lon="6.355169210582972">
        <ele>483.80000000000001</ele>
        <time>2017-07-16T08:28:55Z</time>
      </trkpt>
      <trkpt lat="50.308110164478421" lon="6.355449920520186">
        <ele>483.80000000000001</ele>
        <time>2017-07-16T08:29:11Z</time>
      </trkpt>
      <trkpt lat="50.308106308802962" lon="6.355467271059752">
        <ele>483.81</ele>
        <time>2017-07-16T08:29:12Z</time>
      </trkpt>
      <trkpt lat="50.30795618891716" lon="6.355600543320179">
        <ele>483.81</ele>
        <time>2017-07-16T08:29:24Z</time>
      </trkpt>
      <trkpt lat="50.307831633836031" lon="6.355678327381611">
        <ele>483.85000000000002</ele>
        <time>2017-07-16T08:29:36Z</time>
      </trkpt>
      <trkpt lat="50.307682352140546" lon="6.35577404871583">
        <ele>483.85000000000002</ele>
        <time>2017-07-16T08:29:47Z</time>
      </trkpt>
      <trkpt lat="50.307588642463088" lon="6.355841606855393">
        <ele>486.17000000000002</ele>
        <time>2017-07-16T08:29:54Z</time>
      </trkpt>
      <trkpt lat="50.307434163987637" lon="6.355902710929513">
        <ele>487.54000000000002</ele>
        <time>2017-07-16T08:30:02Z</time>
      </trkpt>
      <trkpt lat="50.307409940287471" lon="6.355913523584604">
        <ele>487.50999999999999</ele>
        <time>2017-07-16T08:30:04Z</time>
      </trkpt>
      <trkpt lat="50.307229645550251" lon="6.355953002348542">
        <ele>488.24000000000001</ele>
        <time>2017-07-16T08:30:19Z</time>
      </trkpt>
      <trkpt lat="50.306941140443087" lon="6.356055932119489">
        <ele>489.13999999999999</ele>
        <time>2017-07-16T08:30:35Z</time>
      </trkpt>
      <trkpt lat="50.306727569550276" lon="6.356025086715818">
        <ele>490.05000000000001</ele>
        <time>2017-07-16T08:30:49Z</time>
      </trkpt>
      <trkpt lat="50.306498492136598" lon="6.355906566604972">
        <ele>490.80000000000001</ele>
        <time>2017-07-16T08:31:05Z</time>
      </trkpt>
      <trkpt lat="50.306324902921915" lon="6.355817215517163">
        <ele>490.77999999999997</ele>
        <time>2017-07-16T08:31:17Z</time>
      </trkpt>
      <trkpt lat="50.306088365614414" lon="6.355563914403319">
        <ele>490.75999999999999</ele>
        <time>2017-07-16T08:31:34Z</time>
      </trkpt>
      <trkpt lat="50.305903125554323" lon="6.355367945507169">
        <ele>488.23000000000002</ele>
        <time>2017-07-16T08:31:47Z</time>
      </trkpt>
      <trkpt lat="50.305700618773699" lon="6.355140628293157">
        <ele>488.31999999999999</ele>
        <time>2017-07-16T08:32:05Z</time>
      </trkpt>
      <trkpt lat="50.305659715086222" lon="6.355138448998332">
        <ele>488.29000000000002</ele>
        <time>2017-07-16T08:32:19Z</time>
      </trkpt>
      <trkpt lat="50.305625852197409" lon="6.355286976322532">
        <ele>486.19</ele>
        <time>2017-07-16T08:32:33Z</time>
      </trkpt>
      <trkpt lat="50.305509092286229" lon="6.355271469801664">
        <ele>483.93000000000001</ele>
        <time>2017-07-16T08:32:42Z</time>
      </trkpt>
      <trkpt lat="50.305293845012784" lon="6.355071645230055">
        <ele>483.25999999999999</ele>
        <time>2017-07-16T08:32:59Z</time>
      </trkpt>
      <trkpt lat="50.305121513083577" lon="6.354850111529231">
        <ele>483.39999999999998</ele>
        <time>2017-07-16T08:33:14Z</time>
      </trkpt>
      <trkpt lat="50.305043309926987" lon="6.354551883414388">
        <ele>485.70999999999998</ele>
        <time>2017-07-16T08:33:27Z</time>
      </trkpt>
      <trkpt lat="50.30476494692266" lon="6.354196406900883">
        <ele>485.62</ele>
        <time>2017-07-16T08:33:49Z</time>
      </trkpt>
      <trkpt lat="50.30454802326858" lon="6.354030529037118">
        <ele>485.58999999999997</ele>
        <time>2017-07-16T08:34:04Z</time>
      </trkpt>
      <trkpt lat="50.304317688569427" lon="6.353918798267841">
        <ele>485.61000000000001</ele>
        <time>2017-07-16T08:34:17Z</time>
      </trkpt>
      <trkpt lat="50.304173603653908" lon="6.353829950094223">
        <ele>483.30000000000001</ele>
        <time>2017-07-16T08:34:26Z</time>
      </trkpt>
      <trkpt lat="50.304160946980119" lon="6.353815952315927">
        <ele>486.45999999999998</ele>
        <time>2017-07-16T08:34:27Z</time>
      </trkpt>
      <trkpt lat="50.304148877039552" lon="6.353799272328615">
        <ele>486.45999999999998</ele>
        <time>2017-07-16T08:34:28Z</time>
      </trkpt>
      <trkpt lat="50.303858444094658" lon="6.353528620675206">
        <ele>486.43000000000001</ele>
        <time>2017-07-16T08:34:46Z</time>
      </trkpt>
      <trkpt lat="50.303720142692327" lon="6.353496517986059">
        <ele>486.42000000000002</ele>
        <time>2017-07-16T08:34:58Z</time>
      </trkpt>
      <trkpt lat="50.303643615916371" lon="6.353525770828128">
        <ele>484.10000000000002</ele>
        <time>2017-07-16T08:35:04Z</time>
      </trkpt>
      <trkpt lat="50.303613776341081" lon="6.353531973436475">
        <ele>484.10000000000002</ele>
        <time>2017-07-16T08:35:06Z</time>
      </trkpt>
      <trkpt lat="50.303320745006204" lon="6.353452010080218">
        <ele>486</ele>
        <time>2017-07-16T08:35:21Z</time>
      </trkpt>
      <trkpt lat="50.303254444152117" lon="6.353394007310271">
        <ele>488.20999999999998</ele>
        <time>2017-07-16T08:35:25Z</time>
      </trkpt>
      <trkpt lat="50.303140534088016" lon="6.353270206600428">
        <ele>489.02999999999997</ele>
        <time>2017-07-16T08:35:38Z</time>
      </trkpt>
      <trkpt lat="50.303098205476999" lon="6.353178005665541">
        <ele>488.98000000000002</ele>
        <time>2017-07-16T08:35:43Z</time>
      </trkpt>
      <trkpt lat="50.303063923493028" lon="6.353117572143674">
        <ele>489.00999999999999</ele>
        <time>2017-07-16T08:35:47Z</time>
      </trkpt>
      <trkpt lat="50.302976751700044" lon="6.352888243272901">
        <ele>491.85000000000002</ele>
        <time>2017-07-16T08:35:59Z</time>
      </trkpt>
      <trkpt lat="50.302813556045294" lon="6.352555565536022">
        <ele>494.72000000000003</ele>
        <time>2017-07-16T08:36:17Z</time>
      </trkpt>
      <trkpt lat="50.302618257701397" lon="6.35238591581583">
        <ele>497.31999999999999</ele>
        <time>2017-07-16T08:36:34Z</time>
      </trkpt>
      <trkpt lat="50.30242245644331" lon="6.352254319936037">
        <ele>501.10000000000002</ele>
        <time>2017-07-16T08:36:50Z</time>
      </trkpt>
      <trkpt lat="50.302211986854672" lon="6.352082155644894">
        <ele>502.06999999999999</ele>
        <time>2017-07-16T08:37:07Z</time>
      </trkpt>
      <trkpt lat="50.301988441497087" lon="6.351903704926372">
        <ele>504.99000000000001</ele>
        <time>2017-07-16T08:37:25Z</time>
      </trkpt>
      <trkpt lat="50.30172860249877" lon="6.351693738251925">
        <ele>507.68000000000001</ele>
        <time>2017-07-16T08:37:47Z</time>
      </trkpt>
      <trkpt lat="50.301511762663722" lon="6.351461643353105">
        <ele>508.56999999999999</ele>
        <time>2017-07-16T08:38:07Z</time>
      </trkpt>
      <trkpt lat="50.301305400207639" lon="6.351190404966474">
        <ele>509.36000000000001</ele>
        <time>2017-07-16T08:38:27Z</time>
      </trkpt>
      <trkpt lat="50.301273129880428" lon="6.351148327812553">
        <ele>511.19</ele>
        <time>2017-07-16T08:38:30Z</time>
      </trkpt>
      <trkpt lat="50.301213869825006" lon="6.350701404735446">
        <ele>512.24000000000001</ele>
        <time>2017-07-16T08:38:51Z</time>
      </trkpt>
      <trkpt lat="50.301210517063737" lon="6.350220534950495">
        <ele>513.83000000000004</ele>
        <time>2017-07-16T08:39:13Z</time>
      </trkpt>
      <trkpt lat="50.301220491528511" lon="6.349795237183571">
        <ele>515.66999999999996</ele>
        <time>2017-07-16T08:39:31Z</time>
      </trkpt>
      <trkpt lat="50.301208170130849" lon="6.349368933588266">
        <ele>518.22000000000003</ele>
        <time>2017-07-16T08:39:50Z</time>
      </trkpt>
      <trkpt lat="50.301192160695791" lon="6.348886471241713">
        <ele>519.90999999999997</ele>
        <time>2017-07-16T08:40:11Z</time>
      </trkpt>
      <trkpt lat="50.301186461001635" lon="6.348793935030699">
        <ele>522.51999999999998</ele>
        <time>2017-07-16T08:40:15Z</time>
      </trkpt>
      <trkpt lat="50.301176821812987" lon="6.348422449082136">
        <ele>523.26999999999998</ele>
        <time>2017-07-16T08:40:32Z</time>
      </trkpt>
      <trkpt lat="50.30117648653686" lon="6.348028667271137">
        <ele>525.08000000000004</ele>
        <time>2017-07-16T08:40:49Z</time>
      </trkpt>
      <trkpt lat="50.301180006936193" lon="6.347677381709218">
        <ele>526.61000000000001</ele>
        <time>2017-07-16T08:41:05Z</time>
      </trkpt>
      <trkpt lat="50.301171289756894" lon="6.347337998449802">
        <ele>527.54999999999995</ele>
        <time>2017-07-16T08:41:22Z</time>
      </trkpt>
      <trkpt lat="50.301141450181603" lon="6.347126523032785">
        <ele>529.12</ele>
        <time>2017-07-16T08:41:34Z</time>
      </trkpt>
      <trkpt lat="50.30114077962935" lon="6.34710380807519">
        <ele>529.12</ele>
        <time>2017-07-16T08:41:35Z</time>
      </trkpt>
      <trkpt lat="50.301136504858732" lon="6.346880178898573">
        <ele>530.01999999999998</ele>
        <time>2017-07-16T08:41:43Z</time>
      </trkpt>
      <trkpt lat="50.301198363304138" lon="6.346469465643168">
        <ele>532.17999999999995</ele>
        <time>2017-07-16T08:42:02Z</time>
      </trkpt>
      <trkpt lat="50.301258964464068" lon="6.346164615824819">
        <ele>533.87</ele>
        <time>2017-07-16T08:42:16Z</time>
      </trkpt>
      <trkpt lat="50.301329456269741" lon="6.345765553414822">
        <ele>536.50999999999999</ele>
        <time>2017-07-16T08:42:34Z</time>
      </trkpt>
      <trkpt lat="50.301367761567235" lon="6.345443269237876">
        <ele>537.44000000000005</ele>
        <time>2017-07-16T08:42:50Z</time>
      </trkpt>
      <trkpt lat="50.301367174834013" lon="6.345365652814508">
        <ele>538.36000000000001</ele>
        <time>2017-07-16T08:42:54Z</time>
      </trkpt>
      <trkpt lat="50.301429284736514" lon="6.345014618709683">
        <ele>539.98000000000002</ele>
        <time>2017-07-16T08:43:11Z</time>
      </trkpt>
      <trkpt lat="50.301509415730834" lon="6.344676660373807">
        <ele>541.63</ele>
        <time>2017-07-16T08:43:28Z</time>
      </trkpt>
      <trkpt lat="50.301477229222655" lon="6.344467531889677">
        <ele>543.30999999999995</ele>
        <time>2017-07-16T08:43:42Z</time>
      </trkpt>
      <trkpt lat="50.301381591707468" lon="6.344111887738109">
        <ele>543.24000000000001</ele>
        <time>2017-07-16T08:43:59Z</time>
      </trkpt>
      <trkpt lat="50.301270028576255" lon="6.343823634088039">
        <ele>543.25999999999999</ele>
        <time>2017-07-16T08:44:15Z</time>
      </trkpt>
      <trkpt lat="50.301132062450051" lon="6.343499924987555">
        <ele>543.25</ele>
        <time>2017-07-16T08:44:32Z</time>
      </trkpt>
      <trkpt lat="50.300994180142879" lon="6.343130953609943">
        <ele>543.25999999999999</ele>
        <time>2017-07-16T08:44:49Z</time>
      </trkpt>
      <trkpt lat="50.300881862640381" lon="6.342816883698106">
        <ele>543.26999999999998</ele>
        <time>2017-07-16T08:45:06Z</time>
      </trkpt>
      <trkpt lat="50.300754709169269" lon="6.342554613947868">
        <ele>543.25999999999999</ele>
        <time>2017-07-16T08:45:22Z</time>
      </trkpt>
      <trkpt lat="50.300692850723863" lon="6.342429304495454">
        <ele>543.25</ele>
        <time>2017-07-16T08:45:30Z</time>
      </trkpt>
      <trkpt lat="50.300667118281126" lon="6.342380689457059">
        <ele>543.25</ele>
        <time>2017-07-16T08:45:35Z</time>
      </trkpt>
      <trkpt lat="50.300527643412352" lon="6.342088412493467">
        <ele>543.24000000000001</ele>
        <time>2017-07-16T08:45:53Z</time>
      </trkpt>
      <trkpt lat="50.300369895994663" lon="6.341815162450075">
        <ele>543.25999999999999</ele>
        <time>2017-07-16T08:46:10Z</time>
      </trkpt>
      <trkpt lat="50.300251459702849" lon="6.341557586565614">
        <ele>543.25</ele>
        <time>2017-07-16T08:46:27Z</time>
      </trkpt>
      <trkpt lat="50.300151128321886" lon="6.341278217732906">
        <ele>543.25</ele>
        <time>2017-07-16T08:46:42Z</time>
      </trkpt>
      <trkpt lat="50.300135118886828" lon="6.341227926313877">
        <ele>543.25999999999999</ele>
        <time>2017-07-16T08:46:44Z</time>
      </trkpt>
      <trkpt lat="50.300160432234406" lon="6.341128936037421">
        <ele>543.26999999999998</ele>
        <time>2017-07-16T08:46:47Z</time>
      </trkpt>
      <trkpt lat="50.300133526325226" lon="6.340921064838767">
        <ele>542.35000000000002</ele>
        <time>2017-07-16T10:18:04Z</time>
      </trkpt>
      <trkpt lat="50.300039146095514" lon="6.34099985472858">
        <ele>539.97000000000003</ele>
        <time>2017-07-16T10:18:08Z</time>
      </trkpt>
      <trkpt lat="50.300048114731908" lon="6.341300932690501">
        <ele>538.36000000000001</ele>
        <time>2017-07-16T10:18:24Z</time>
      </trkpt>
      <trkpt lat="50.300081558525562" lon="6.341538559645414">
        <ele>538.45000000000005</ele>
        <time>2017-07-16T10:18:38Z</time>
      </trkpt>
      <trkpt lat="50.300083570182323" lon="6.341879535466433">
        <ele>536.02999999999997</ele>
        <time>2017-07-16T10:18:55Z</time>
      </trkpt>
      <trkpt lat="50.300108464434743" lon="6.342090340331197">
        <ele>533.88999999999999</ele>
        <time>2017-07-16T10:19:08Z</time>
      </trkpt>
      <trkpt lat="50.300158085301518" lon="6.342309610918164">
        <ele>533.08000000000004</ele>
        <time>2017-07-16T10:19:24Z</time>
      </trkpt>
      <trkpt lat="50.300152134150267" lon="6.342590404674411">
        <ele>531.53999999999996</ele>
        <time>2017-07-16T10:19:40Z</time>
      </trkpt>
      <trkpt lat="50.300226397812366" lon="6.342965411022306">
        <ele>529.87</ele>
        <time>2017-07-16T10:19:57Z</time>
      </trkpt>
      <trkpt lat="50.300228828564286" lon="6.343126511201263">
        <ele>529.11000000000001</ele>
        <time>2017-07-16T10:20:05Z</time>
      </trkpt>
      <trkpt lat="50.300219524651766" lon="6.343301860615611">
        <ele>529.14999999999998</ele>
        <time>2017-07-16T10:20:14Z</time>
      </trkpt>
      <trkpt lat="50.300220781937242" lon="6.343529261648655">
        <ele>528.37</ele>
        <time>2017-07-16T10:20:25Z</time>
      </trkpt>
      <trkpt lat="50.300208879634738" lon="6.343642501160502">
        <ele>528.38999999999999</ele>
        <time>2017-07-16T10:20:33Z</time>
      </trkpt>
      <trkpt lat="50.300087677314878" lon="6.344017675146461">
        <ele>526.51999999999998</ele>
        <time>2017-07-16T10:20:54Z</time>
      </trkpt>
      <trkpt lat="50.300058843567967" lon="6.34418036788702">
        <ele>525.71000000000004</ele>
        <time>2017-07-16T10:21:07Z</time>
      </trkpt>
      <trkpt lat="50.300002517178655" lon="6.34440902620554">
        <ele>524.10000000000002</ele>
        <time>2017-07-16T10:21:22Z</time>
      </trkpt>
      <trkpt lat="50.29995926655829" lon="6.344616059213877">
        <ele>523.36000000000001</ele>
        <time>2017-07-16T10:21:35Z</time>
      </trkpt>
      <trkpt lat="50.29988307505846" lon="6.344896266236901">
        <ele>522.47000000000003</ele>
        <time>2017-07-16T10:21:51Z</time>
      </trkpt>
      <trkpt lat="50.299774194136262" lon="6.34515417739749">
        <ele>521.47000000000003</ele>
        <time>2017-07-16T10:22:06Z</time>
      </trkpt>
      <trkpt lat="50.299607561901212" lon="6.345475120469928">
        <ele>519.83000000000004</ele>
        <time>2017-07-16T10:22:25Z</time>
      </trkpt>
      <trkpt lat="50.29943011701107" lon="6.345764128491283">
        <ele>518.89999999999998</ele>
        <time>2017-07-16T10:22:44Z</time>
      </trkpt>
      <trkpt lat="50.29928058385849" lon="6.346067218109965">
        <ele>518.11000000000001</ele>
        <time>2017-07-16T10:23:03Z</time>
      </trkpt>
      <trkpt lat="50.299190897494555" lon="6.346386484801769">
        <ele>516.29999999999995</ele>
        <time>2017-07-16T10:23:20Z</time>
      </trkpt>
      <trkpt lat="50.29909391887486" lon="6.346779176965356">
        <ele>513.52999999999997</ele>
        <time>2017-07-16T10:23:40Z</time>
      </trkpt>
      <trkpt lat="50.299065168946981" lon="6.34687221609056">
        <ele>512.63999999999999</ele>
        <time>2017-07-16T10:23:46Z</time>
      </trkpt>
      <trkpt lat="50.298938602209091" lon="6.347099533304572">
        <ele>509.93000000000001</ele>
        <time>2017-07-16T10:24:02Z</time>
      </trkpt>
      <trkpt lat="50.29873869381845" lon="6.347311343997717">
        <ele>508.02999999999997</ele>
        <time>2017-07-16T10:24:18Z</time>
      </trkpt>
      <trkpt lat="50.298535516485572" lon="6.347564058378339">
        <ele>504.93000000000001</ele>
        <time>2017-07-16T10:24:37Z</time>
      </trkpt>
      <trkpt lat="50.298484722152352" lon="6.347895059734583">
        <ele>502.62</ele>
        <time>2017-07-16T10:24:55Z</time>
      </trkpt>
      <trkpt lat="50.298498803749681" lon="6.348237544298172">
        <ele>500.63999999999999</ele>
        <time>2017-07-16T10:25:12Z</time>
      </trkpt>
      <trkpt lat="50.298507604748011" lon="6.348677761852741">
        <ele>498.07999999999998</ele>
        <time>2017-07-16T10:25:31Z</time>
      </trkpt>
      <trkpt lat="50.298512047156692" lon="6.348766945302486">
        <ele>498.11000000000001</ele>
        <time>2017-07-16T10:25:35Z</time>
      </trkpt>
      <trkpt lat="50.298528224229813" lon="6.349158463999629">
        <ele>498.10000000000002</ele>
        <time>2017-07-16T10:25:51Z</time>
      </trkpt>
      <trkpt lat="50.29860969632864" lon="6.349592646583915">
        <ele>498.13999999999999</ele>
        <time>2017-07-16T10:26:08Z</time>
      </trkpt>
      <trkpt lat="50.298656802624464" lon="6.349834967404604">
        <ele>498.14999999999998</ele>
        <time>2017-07-16T10:26:22Z</time>
      </trkpt>
      <trkpt lat="50.298651438206434" lon="6.350119700655341">
        <ele>498.13999999999999</ele>
        <time>2017-07-16T10:26:37Z</time>
      </trkpt>
      <trkpt lat="50.298611959442496" lon="6.350396387279034">
        <ele>498.13999999999999</ele>
        <time>2017-07-16T10:26:49Z</time>
      </trkpt>
      <trkpt lat="50.298597123473883" lon="6.350532341748476">
        <ele>500.82999999999998</ele>
        <time>2017-07-16T10:26:55Z</time>
      </trkpt>
      <trkpt lat="50.298538533970714" lon="6.350951688364148">
        <ele>501.79000000000002</ele>
        <time>2017-07-16T10:27:14Z</time>
      </trkpt>
      <trkpt lat="50.298436777666211" lon="6.351406071335077">
        <ele>503.38999999999999</ele>
        <time>2017-07-16T10:27:35Z</time>
      </trkpt>
      <trkpt lat="50.298349857330322" lon="6.351852156221867">
        <ele>503.38</ele>
        <time>2017-07-16T10:27:57Z</time>
      </trkpt>
      <trkpt lat="50.29826276935637" lon="6.352330427616835">
        <ele>503.33999999999997</ele>
        <time>2017-07-16T10:28:14Z</time>
      </trkpt>
      <trkpt lat="50.298206359148026" lon="6.352659333497286">
        <ele>503.35000000000002</ele>
        <time>2017-07-16T10:28:32Z</time>
      </trkpt>
      <trkpt lat="50.298155900090933" lon="6.352914730086923">
        <ele>500.83999999999997</ele>
        <time>2017-07-16T10:28:43Z</time>
      </trkpt>
      <trkpt lat="50.298104770481586" lon="6.353281689807773">
        <ele>499.89999999999998</ele>
        <time>2017-07-16T10:29:01Z</time>
      </trkpt>
      <trkpt lat="50.298074930906296" lon="6.353482101112604">
        <ele>498.48000000000002</ele>
        <time>2017-07-16T10:29:10Z</time>
      </trkpt>
      <trkpt lat="50.29799597337842" lon="6.35390848852694">
        <ele>497.68000000000001</ele>
        <time>2017-07-16T10:29:29Z</time>
      </trkpt>
      <trkpt lat="50.297802686691284" lon="6.354300007224083">
        <ele>495.87</ele>
        <time>2017-07-16T10:29:51Z</time>
      </trkpt>
      <trkpt lat="50.297508900985122" lon="6.354445349425077">
        <ele>495.89999999999998</ele>
        <time>2017-07-16T10:30:11Z</time>
      </trkpt>
      <trkpt lat="50.29733338393271" lon="6.354660680517554">
        <ele>495.91000000000003</ele>
        <time>2017-07-16T10:30:27Z</time>
      </trkpt>
      <trkpt lat="50.297299269586802" lon="6.355069046840072">
        <ele>495.94999999999999</ele>
        <time>2017-07-16T10:30:45Z</time>
      </trkpt>
      <trkpt lat="50.297184437513351" lon="6.355606913566589">
        <ele>495.92000000000002</ele>
        <time>2017-07-16T10:31:10Z</time>
      </trkpt>
      <trkpt lat="50.297063067555428" lon="6.355952667072415">
        <ele>495.93000000000001</ele>
        <time>2017-07-16T10:31:27Z</time>
      </trkpt>
      <trkpt lat="50.2969591319561" lon="6.356159616261721">
        <ele>495.92000000000002</ele>
        <time>2017-07-16T10:31:39Z</time>
      </trkpt>
      <trkpt lat="50.296928621828556" lon="6.356228431686759">
        <ele>495.91000000000003</ele>
        <time>2017-07-16T10:31:44Z</time>
      </trkpt>
      <trkpt lat="50.296840025112033" lon="6.356467148289084">
        <ele>495.89999999999998</ele>
        <time>2017-07-16T10:31:59Z</time>
      </trkpt>
      <trkpt lat="50.296666100621223" lon="6.356815500184894">
        <ele>495.91000000000003</ele>
        <time>2017-07-16T10:32:16Z</time>
      </trkpt>
      <trkpt lat="50.296613126993179" lon="6.356932846829295">
        <ele>495.88999999999999</ele>
        <time>2017-07-16T10:32:22Z</time>
      </trkpt>
      <trkpt lat="50.296429898589849" lon="6.35723015293479">
        <ele>494.07999999999998</ele>
        <time>2017-07-16T10:32:41Z</time>
      </trkpt>
      <trkpt lat="50.296189170330763" lon="6.357466941699386">
        <ele>494.11000000000001</ele>
        <time>2017-07-16T10:32:58Z</time>
      </trkpt>
      <trkpt lat="50.295991022139788" lon="6.357650840654969">
        <ele>494.11000000000001</ele>
        <time>2017-07-16T10:33:13Z</time>
      </trkpt>
      <trkpt lat="50.295791868120432" lon="6.357777742668986">
        <ele>494.11000000000001</ele>
        <time>2017-07-16T10:33:28Z</time>
      </trkpt>
      <trkpt lat="50.295620039105415" lon="6.357883522287011">
        <ele>494.11000000000001</ele>
        <time>2017-07-16T10:33:41Z</time>
      </trkpt>
      <trkpt lat="50.29542675241828" lon="6.357951667159796">
        <ele>494.10000000000002</ele>
        <time>2017-07-16T10:33:54Z</time>
      </trkpt>
      <trkpt lat="50.295170685276389" lon="6.358110839501023">
        <ele>494.11000000000001</ele>
        <time>2017-07-16T10:34:10Z</time>
      </trkpt>
      <trkpt lat="50.294988546520472" lon="6.35816783644259">
        <ele>494.13</ele>
        <time>2017-07-16T10:34:25Z</time>
      </trkpt>
      <trkpt lat="50.294910259544849" lon="6.358180576935411">
        <ele>496.37</ele>
        <time>2017-07-16T10:34:31Z</time>
      </trkpt>
      <trkpt lat="50.294730802997947" lon="6.358213936910033">
        <ele>496.36000000000001</ele>
        <time>2017-07-16T10:34:44Z</time>
      </trkpt>
      <trkpt lat="50.294675147160888" lon="6.35823480784893">
        <ele>496.37</ele>
        <time>2017-07-16T10:34:48Z</time>
      </trkpt>
      <trkpt lat="50.294459899887443" lon="6.358284261077642">
        <ele>497.18000000000001</ele>
        <time>2017-07-16T10:35:03Z</time>
      </trkpt>
      <trkpt lat="50.294200479984283" lon="6.358255678787828">
        <ele>497.16000000000003</ele>
        <time>2017-07-16T10:35:22Z</time>
      </trkpt>
      <trkpt lat="50.293928571045399" lon="6.358273616060615">
        <ele>497.16000000000003</ele>
        <time>2017-07-16T10:35:38Z</time>
      </trkpt>
      <trkpt lat="50.293829077854753" lon="6.358218714594841">
        <ele>497.16000000000003</ele>
        <time>2017-07-16T10:35:45Z</time>
      </trkpt>
      <trkpt lat="50.293723549693823" lon="6.358040263876319">
        <ele>497.14999999999998</ele>
        <time>2017-07-16T10:35:55Z</time>
      </trkpt>
      <trkpt lat="50.293332366272807" lon="6.357808001339436">
        <ele>497.17000000000002</ele>
        <time>2017-07-16T10:36:25Z</time>
      </trkpt>
      <trkpt lat="50.292987367138267" lon="6.357909925282002">
        <ele>497.17000000000002</ele>
        <time>2017-07-16T10:36:41Z</time>
      </trkpt>
      <trkpt lat="50.292696766555309" lon="6.35794403962791">
        <ele>497.18000000000001</ele>
        <time>2017-07-16T10:36:58Z</time>
      </trkpt>
      <trkpt lat="50.292443297803402" lon="6.357890563085675">
        <ele>497.18000000000001</ele>
        <time>2017-07-16T10:37:15Z</time>
      </trkpt>
      <trkpt lat="50.292456792667508" lon="6.357826106250286">
        <ele>498.56999999999999</ele>
        <time>2017-07-16T10:37:22Z</time>
      </trkpt>
      <trkpt lat="50.292443297803402" lon="6.358256097882986">
        <ele>498.56999999999999</ele>
        <time>2017-07-16T10:37:35Z</time>
      </trkpt>
      <trkpt lat="50.292510688304901" lon="6.358514176681638">
        <ele>499.30000000000001</ele>
        <time>2017-07-16T10:45:35Z</time>
      </trkpt>
      <trkpt lat="50.292318239808083" lon="6.358627835288644">
        <ele>501.69999999999999</ele>
        <time>2017-07-16T10:45:52Z</time>
      </trkpt>
      <trkpt lat="50.292177926748991" lon="6.358616100624204">
        <ele>502.80000000000001</ele>
        <time>2017-07-16T10:46:06Z</time>
      </trkpt>
      <trkpt lat="50.29212411493063" lon="6.358634456992149">
        <ele>504.95999999999998</ele>
        <time>2017-07-16T10:46:10Z</time>
      </trkpt>
      <trkpt lat="50.291812140494585" lon="6.358806453645229">
        <ele>505.93000000000001</ele>
        <time>2017-07-16T10:46:22Z</time>
      </trkpt>
      <trkpt lat="50.291730919852853" lon="6.358876442536712">
        <ele>507.29000000000002</ele>
        <time>2017-07-16T10:46:24Z</time>
      </trkpt>
      <trkpt lat="50.29160032980144" lon="6.359007032588124">
        <ele>509.5</ele>
        <time>2017-07-16T10:46:28Z</time>
      </trkpt>
      <trkpt lat="50.291530676186085" lon="6.359080038964748">
        <ele>511.25</ele>
        <time>2017-07-16T10:46:30Z</time>
      </trkpt>
      <trkpt lat="50.291374186053872" lon="6.359244240447879">
        <ele>512.79999999999995</ele>
        <time>2017-07-16T10:46:34Z</time>
      </trkpt>
      <trkpt lat="50.291199926286936" lon="6.359421852976084">
        <ele>516.48000000000002</ele>
        <time>2017-07-16T10:46:38Z</time>
      </trkpt>
      <trkpt lat="50.291163045912981" lon="6.359460828825831">
        <ele>517.01999999999998</ele>
        <time>2017-07-16T10:46:39Z</time>
      </trkpt>
      <trkpt lat="50.290962969884276" lon="6.359766600653529">
        <ele>520.75999999999999</ele>
        <time>2017-07-16T10:46:44Z</time>
      </trkpt>
      <trkpt lat="50.290887448936701" lon="6.359926108270884">
        <ele>523</ele>
        <time>2017-07-16T10:46:46Z</time>
      </trkpt>
      <trkpt lat="50.290808910503983" lon="6.360155353322625">
        <ele>525.45000000000005</ele>
        <time>2017-07-16T10:46:49Z</time>
      </trkpt>
      <trkpt lat="50.29076867736876" lon="6.360296336933971">
        <ele>527.63999999999999</ele>
        <time>2017-07-16T10:46:51Z</time>
      </trkpt>
      <trkpt lat="50.290724588558078" lon="6.360491635277867">
        <ele>529.74000000000001</ele>
        <time>2017-07-16T10:46:54Z</time>
      </trkpt>
      <trkpt lat="50.290708662942052" lon="6.360557517036796">
        <ele>529.75</ele>
        <time>2017-07-16T10:46:55Z</time>
      </trkpt>
      <trkpt lat="50.290662394836545" lon="6.360764550045133">
        <ele>531.66999999999996</ele>
        <time>2017-07-16T10:46:58Z</time>
      </trkpt>
      <trkpt lat="50.29059324413538" lon="6.361005026847124">
        <ele>534.59000000000003</ele>
        <time>2017-07-16T10:47:03Z</time>
      </trkpt>
      <trkpt lat="50.290502887219191" lon="6.361240306869149">
        <ele>536.52999999999997</ele>
        <time>2017-07-16T10:47:08Z</time>
      </trkpt>
      <trkpt lat="50.290412362664938" lon="6.361428983509541">
        <ele>537.67999999999995</ele>
        <time>2017-07-16T10:47:12Z</time>
      </trkpt>
      <trkpt lat="50.290251262485981" lon="6.361679183319211">
        <ele>540.85000000000002</ele>
        <time>2017-07-16T10:47:19Z</time>
      </trkpt>
      <trkpt lat="50.290208850055933" lon="6.361713632941246">
        <ele>540.55999999999995</ele>
        <time>2017-07-16T10:47:22Z</time>
      </trkpt>
      <trkpt lat="50.29014078900218" lon="6.361799463629723">
        <ele>541.73000000000002</ele>
        <time>2017-07-16T10:47:28Z</time>
      </trkpt>
      <trkpt lat="50.289979772642255" lon="6.362096350640059">
        <ele>545.45000000000005</ele>
        <time>2017-07-16T10:47:44Z</time>
      </trkpt>
      <trkpt lat="50.289777852594852" lon="6.362407570704818">
        <ele>549.23000000000002</ele>
        <time>2017-07-16T10:48:02Z</time>
      </trkpt>
      <trkpt lat="50.289589511230588" lon="6.362814176827669">
        <ele>551.19000000000005</ele>
        <time>2017-07-16T10:48:23Z</time>
      </trkpt>
      <trkpt lat="50.289528407156467" lon="6.362945521250367">
        <ele>553.41999999999996</ele>
        <time>2017-07-16T10:48:30Z</time>
      </trkpt>
      <trkpt lat="50.289468057453632" lon="6.363079966977239">
        <ele>555.46000000000004</ele>
        <time>2017-07-16T10:48:37Z</time>
      </trkpt>
      <trkpt lat="50.289284912869334" lon="6.363453716039658">
        <ele>557.30999999999995</ele>
        <time>2017-07-16T10:48:58Z</time>
      </trkpt>
      <trkpt lat="50.289266221225262" lon="6.363487578928471">
        <ele>558.46000000000004</ele>
        <time>2017-07-16T10:49:00Z</time>
      </trkpt>
      <trkpt lat="50.289140241220593" lon="6.363779352977872">
        <ele>559.76999999999998</ele>
        <time>2017-07-16T10:49:16Z</time>
      </trkpt>
      <trkpt lat="50.288970256224275" lon="6.363992253318429">
        <ele>562.53999999999996</ele>
        <time>2017-07-16T10:49:32Z</time>
      </trkpt>
      <trkpt lat="50.288830613717437" lon="6.364212278276682">
        <ele>564.63</ele>
        <time>2017-07-16T10:49:45Z</time>
      </trkpt>
      <trkpt lat="50.288603296503425" lon="6.364601533859968">
        <ele>567.21000000000004</ele>
        <time>2017-07-16T10:50:08Z</time>
      </trkpt>
      <trkpt lat="50.288337673991919" lon="6.36493094265461">
        <ele>568.08000000000004</ele>
        <time>2017-07-16T10:50:31Z</time>
      </trkpt>
      <trkpt lat="50.288069117814302" lon="6.365253310650587">
        <ele>570.20000000000005</ele>
        <time>2017-07-16T10:50:54Z</time>
      </trkpt>
      <trkpt lat="50.287928972393274" lon="6.365506695583463">
        <ele>571.88</ele>
        <time>2017-07-16T10:51:12Z</time>
      </trkpt>
      <trkpt lat="50.287889325991273" lon="6.365582467988133">
        <ele>572.62</ele>
        <time>2017-07-16T10:51:31Z</time>
      </trkpt>
      <trkpt lat="50.287721017375588" lon="6.365905422717333">
        <ele>576.13999999999999</ele>
        <time>2017-07-16T10:51:50Z</time>
      </trkpt>
      <trkpt lat="50.28758087195456" lon="6.366306161507964">
        <ele>578.55999999999995</ele>
        <time>2017-07-16T10:52:10Z</time>
      </trkpt>
      <trkpt lat="50.28754566796124" lon="6.366386795416474">
        <ele>579.90999999999997</ele>
        <time>2017-07-16T10:52:14Z</time>
      </trkpt>
      <trkpt lat="50.287417257204652" lon="6.366657447069883">
        <ele>582.12</ele>
        <time>2017-07-16T10:52:29Z</time>
      </trkpt>
      <trkpt lat="50.287208631634712" lon="6.367081236094236">
        <ele>583.97000000000003</ele>
        <time>2017-07-16T10:52:52Z</time>
      </trkpt>
      <trkpt lat="50.287122968584299" lon="6.367351887747645">
        <ele>584.82000000000005</ele>
        <time>2017-07-16T10:54:59Z</time>
      </trkpt>
      <trkpt lat="50.286963293328881" lon="6.367661682888866">
        <ele>587.38</ele>
        <time>2017-07-16T10:55:20Z</time>
      </trkpt>
      <trkpt lat="50.286816190928221" lon="6.368045825511217">
        <ele>591.00999999999999</ele>
        <time>2017-07-16T10:55:41Z</time>
      </trkpt>
      <trkpt lat="50.286705130711198" lon="6.36831765063107">
        <ele>593.39999999999998</ele>
        <time>2017-07-16T10:55:57Z</time>
      </trkpt>
      <trkpt lat="50.286598848178983" lon="6.368597773835063">
        <ele>593.35000000000002</ele>
        <time>2017-07-16T10:56:12Z</time>
      </trkpt>
      <trkpt lat="50.286480244249105" lon="6.368892146274447">
        <ele>595.09000000000003</ele>
        <time>2017-07-16T10:56:31Z</time>
      </trkpt>
      <trkpt lat="50.286328783258796" lon="6.369306463748217">
        <ele>596.07000000000005</ele>
        <time>2017-07-16T10:56:53Z</time>
      </trkpt>
      <trkpt lat="50.286199618130922" lon="6.369728576391935">
        <ele>597.24000000000001</ele>
        <time>2017-07-16T10:57:15Z</time>
      </trkpt>
      <trkpt lat="50.28619509190321" lon="6.369756571948528">
        <ele>597.25999999999999</ele>
        <time>2017-07-16T10:57:16Z</time>
      </trkpt>
      <trkpt lat="50.286178914830089" lon="6.369838211685419">
        <ele>597.28999999999996</ele>
        <time>2017-07-16T10:57:20Z</time>
      </trkpt>
      <trkpt lat="50.286122923716903" lon="6.370116155594587">
        <ele>597.27999999999997</ele>
        <time>2017-07-16T10:57:36Z</time>
      </trkpt>
      <trkpt lat="50.286088390275836" lon="6.3704798463732">
        <ele>598.32000000000005</ele>
        <time>2017-07-16T10:57:53Z</time>
      </trkpt>
      <trkpt lat="50.286008846014738" lon="6.370927188545466">
        <ele>599.91999999999996</ele>
        <time>2017-07-16T10:58:14Z</time>
      </trkpt>
      <trkpt lat="50.285960985347629" lon="6.371221728622913">
        <ele>602.25</ele>
        <time>2017-07-16T10:58:29Z</time>
      </trkpt>
      <trkpt lat="50.285885967314243" lon="6.371572762727737">
        <ele>602.20000000000005</ele>
        <time>2017-07-16T10:58:48Z</time>
      </trkpt>
      <trkpt lat="50.285827377811074" lon="6.371977273374796">
        <ele>602.21000000000004</ele>
        <time>2017-07-16T10:59:08Z</time>
      </trkpt>
      <trkpt lat="50.285820756107569" lon="6.372070899233222">
        <ele>603.25999999999999</ele>
        <time>2017-07-16T10:59:20Z</time>
      </trkpt>
      <trkpt lat="50.285804327577353" lon="6.372108282521367">
        <ele>603.25999999999999</ele>
        <time>2017-07-16T10:59:36Z</time>
      </trkpt>
      <trkpt lat="50.285791922360659" lon="6.372080286964774">
        <ele>603.25999999999999</ele>
        <time>2017-07-16T10:59:54Z</time>
      </trkpt>
      <trkpt lat="50.285780187696218" lon="6.372122028842568">
        <ele>603.25999999999999</ele>
        <time>2017-07-16T11:00:14Z</time>
      </trkpt>
      <trkpt lat="50.285778762772679" lon="6.372141307219863">
        <ele>603.25999999999999</ele>
        <time>2017-07-16T11:00:31Z</time>
      </trkpt>
      <trkpt lat="50.285781612619758" lon="6.372143151238561">
        <ele>603.25999999999999</ele>
        <time>2017-07-16T11:00:35Z</time>
      </trkpt>
      <trkpt lat="50.285753784701228" lon="6.372282290831208">
        <ele>603.25999999999999</ele>
        <time>2017-07-16T11:00:43Z</time>
      </trkpt>
      <trkpt lat="50.285737775266171" lon="6.372380023822188">
        <ele>604.75999999999999</ele>
        <time>2017-07-16T11:00:48Z</time>
      </trkpt>
      <trkpt lat="50.285751689225435" lon="6.372674396261573">
        <ele>604.75999999999999</ele>
        <time>2017-07-16T11:01:07Z</time>
      </trkpt>
      <trkpt lat="50.285742552950978" lon="6.3726816046983">
        <ele>604.75</ele>
        <time>2017-07-16T11:01:31Z</time>
      </trkpt>
      <trkpt lat="50.285766022279859" lon="6.372754694893956">
        <ele>604.73000000000002</ele>
        <time>2017-07-16T11:01:58Z</time>
      </trkpt>
      <trkpt lat="50.285928547382355" lon="6.373081589117646">
        <ele>605.61000000000001</ele>
        <time>2017-07-16T11:02:17Z</time>
      </trkpt>
      <trkpt lat="50.286100544035435" lon="6.373461708426476">
        <ele>605.59000000000003</ele>
        <time>2017-07-16T11:02:38Z</time>
      </trkpt>
      <trkpt lat="50.286237755790353" lon="6.373780639842153">
        <ele>605.55999999999995</ele>
        <time>2017-07-16T11:02:56Z</time>
      </trkpt>
      <trkpt lat="50.286287544295192" lon="6.373881390318275">
        <ele>603.23000000000002</ele>
        <time>2017-07-16T11:03:02Z</time>
      </trkpt>
      <trkpt lat="50.286439843475819" lon="6.374224545434117">
        <ele>602.47000000000003</ele>
        <time>2017-07-16T11:03:22Z</time>
      </trkpt>
      <trkpt lat="50.286584850400686" lon="6.374586392194033">
        <ele>600.69000000000005</ele>
        <time>2017-07-16T11:03:41Z</time>
      </trkpt>
      <trkpt lat="50.286645786836743" lon="6.37480323202908">
        <ele>600.63999999999999</ele>
        <time>2017-07-16T11:03:52Z</time>
      </trkpt>
      <trkpt lat="50.286650396883488" lon="6.374952346086502">
        <ele>602.95000000000005</ele>
        <time>2017-07-16T11:03:59Z</time>
      </trkpt>
      <trkpt lat="50.28664268553257" lon="6.375052342191339">
        <ele>603</ele>
        <time>2017-07-16T11:04:04Z</time>
      </trkpt>
      <trkpt lat="50.28648879379034" lon="6.375503959134221">
        <ele>604.11000000000001</ele>
        <time>2017-07-16T11:04:17Z</time>
      </trkpt>
      <trkpt lat="50.286335991695523" lon="6.376000922173262">
        <ele>607.64999999999998</ele>
        <time>2017-07-16T11:04:24Z</time>
      </trkpt>
      <trkpt lat="50.286319898441434" lon="6.376071162521839">
        <ele>607.70000000000005</ele>
        <time>2017-07-16T11:04:25Z</time>
      </trkpt>
      <trkpt lat="50.286287125200033" lon="6.376206027343869">
        <ele>609</ele>
        <time>2017-07-16T11:04:27Z</time>
      </trkpt>
      <trkpt lat="50.28608906082809" lon="6.376801477745175">
        <ele>612.62</ele>
        <time>2017-07-16T11:04:37Z</time>
      </trkpt>
      <trkpt lat="50.285995183512568" lon="6.377230128273368">
        <ele>615.12</ele>
        <time>2017-07-16T11:04:47Z</time>
      </trkpt>
      <trkpt lat="50.285857804119587" lon="6.377962622791529">
        <ele>618.65999999999997</ele>
        <time>2017-07-16T11:05:02Z</time>
      </trkpt>
      <trkpt lat="50.285741714760661" lon="6.378573160618544">
        <ele>620.34000000000003</ele>
        <time>2017-07-16T11:05:14Z</time>
      </trkpt>
      <trkpt lat="50.285726878792048" lon="6.378720765933394">
        <ele>621.61000000000001</ele>
        <time>2017-07-16T11:05:17Z</time>
      </trkpt>
      <trkpt lat="50.285487994551659" lon="6.379715949296951">
        <ele>623.47000000000003</ele>
        <time>2017-07-16T11:05:59Z</time>
      </trkpt>
      <trkpt lat="50.285366540774703" lon="6.380014596506953">
        <ele>624.22000000000003</ele>
        <time>2017-07-16T11:06:14Z</time>
      </trkpt>
      <trkpt lat="50.285280123353004" lon="6.380338557064533">
        <ele>624.22000000000003</ele>
        <time>2017-07-16T11:06:27Z</time>
      </trkpt>
      <trkpt lat="50.285245589911938" lon="6.380595378577709">
        <ele>624.21000000000004</ele>
        <time>2017-07-16T11:06:42Z</time>
      </trkpt>
      <trkpt lat="50.285207703709602" lon="6.38094138354063">
        <ele>624.19000000000005</ele>
        <time>2017-07-16T11:06:57Z</time>
      </trkpt>
      <trkpt lat="50.285139391198754" lon="6.381254782900214">
        <ele>624.16999999999996</ele>
        <time>2017-07-16T11:07:13Z</time>
      </trkpt>
      <trkpt lat="50.285046184435487" lon="6.381593244150281">
        <ele>624.19000000000005</ele>
        <time>2017-07-16T11:07:29Z</time>
      </trkpt>
      <trkpt lat="50.285034198313951" lon="6.381731377914548">
        <ele>621.87</ele>
        <time>2017-07-16T11:07:38Z</time>
      </trkpt>
      <trkpt lat="50.284977536648512" lon="6.382185090333223">
        <ele>620.24000000000001</ele>
        <time>2017-07-16T11:08:00Z</time>
      </trkpt>
      <trkpt lat="50.284921880811453" lon="6.382346693426371">
        <ele>620.25</ele>
        <time>2017-07-16T11:08:08Z</time>
      </trkpt>
      <trkpt lat="50.284806042909622" lon="6.382674258202314">
        <ele>619.49000000000001</ele>
        <time>2017-07-16T11:08:24Z</time>
      </trkpt>
      <trkpt lat="50.284647541120648" lon="6.383051611483097">
        <ele>619.49000000000001</ele>
        <time>2017-07-16T11:08:39Z</time>
      </trkpt>
      <trkpt lat="50.284506138414145" lon="6.383367525413632">
        <ele>618.30999999999995</ele>
        <time>2017-07-16T11:08:56Z</time>
      </trkpt>
      <trkpt lat="50.28449616394937" lon="6.383504653349519">
        <ele>618.30999999999995</ele>
        <time>2017-07-16T11:09:07Z</time>
      </trkpt>
      <trkpt lat="50.28448736295104" lon="6.383591070771217">
        <ele>618.33000000000004</ele>
        <time>2017-07-16T11:09:11Z</time>
      </trkpt>
      <trkpt lat="50.284433551132679" lon="6.38387605547905">
        <ele>621.07000000000005</ele>
        <time>2017-07-16T11:09:24Z</time>
      </trkpt>
      <trkpt lat="50.284312013536692" lon="6.384296575561166">
        <ele>621.89999999999998</ele>
        <time>2017-07-16T11:09:44Z</time>
      </trkpt>
      <trkpt lat="50.284151332452893" lon="6.384743414819241">
        <ele>623.71000000000004</ele>
        <time>2017-07-16T11:10:06Z</time>
      </trkpt>
      <trkpt lat="50.283947568386793" lon="6.385223362594843">
        <ele>626.16999999999996</ele>
        <time>2017-07-16T11:10:30Z</time>
      </trkpt>
      <trkpt lat="50.283730141818523" lon="6.385561572387815">
        <ele>627.86000000000001</ele>
        <time>2017-07-16T11:10:50Z</time>
      </trkpt>
      <trkpt lat="50.283569460734725" lon="6.385666429996491">
        <ele>628.91999999999996</ele>
        <time>2017-07-16T11:11:03Z</time>
      </trkpt>
      <trkpt lat="50.283363182097673" lon="6.385764162987471">
        <ele>628.90999999999997</ele>
        <time>2017-07-16T11:11:17Z</time>
      </trkpt>
      <trkpt lat="50.283208955079317" lon="6.385820740833879">
        <ele>632.00999999999999</ele>
        <time>2017-07-16T11:11:27Z</time>
      </trkpt>
      <trkpt lat="50.283193029463291" lon="6.385826775804162">
        <ele>632</ele>
        <time>2017-07-16T11:11:28Z</time>
      </trkpt>
      <trkpt lat="50.282903769984841" lon="6.385924424976111">
        <ele>632.00999999999999</ele>
        <time>2017-07-16T11:11:47Z</time>
      </trkpt>
      <trkpt lat="50.28278348967433" lon="6.38596449047327">
        <ele>634.80999999999995</ele>
        <time>2017-07-16T11:11:55Z</time>
      </trkpt>
      <trkpt lat="50.282482830807567" lon="6.386075969785452">
        <ele>636.35000000000002</ele>
        <time>2017-07-16T11:12:16Z</time>
      </trkpt>
      <trkpt lat="50.282249981537461" lon="6.386188622564077">
        <ele>638.19000000000005</ele>
        <time>2017-07-16T11:12:33Z</time>
      </trkpt>
      <trkpt lat="50.281981090083718" lon="6.38638517819345">
        <ele>639.83000000000004</ele>
        <time>2017-07-16T11:12:52Z</time>
      </trkpt>
      <trkpt lat="50.281708594411612" lon="6.386473858729005">
        <ele>641.47000000000003</ele>
        <time>2017-07-16T11:13:10Z</time>
      </trkpt>
      <trkpt lat="50.281472308561206" lon="6.386456592008472">
        <ele>643.23000000000002</ele>
        <time>2017-07-16T11:13:26Z</time>
      </trkpt>
      <trkpt lat="50.281318919733167" lon="6.386417197063565">
        <ele>644.02999999999997</ele>
        <time>2017-07-16T11:13:37Z</time>
      </trkpt>
      <trkpt lat="50.281127728521824" lon="6.38643161393702">
        <ele>645.77999999999997</ele>
        <time>2017-07-16T11:13:52Z</time>
      </trkpt>
      <trkpt lat="50.280964700505137" lon="6.386568741872907">
        <ele>647.48000000000002</ele>
        <time>2017-07-16T11:14:06Z</time>
      </trkpt>
      <trkpt lat="50.280824722722173" lon="6.386765297502279">
        <ele>648.34000000000003</ele>
        <time>2017-07-16T11:14:19Z</time>
      </trkpt>
      <trkpt lat="50.280587933957577" lon="6.3871078658849">
        <ele>650.76999999999998</ele>
        <time>2017-07-16T11:14:37Z</time>
      </trkpt>
      <trkpt lat="50.280549796298146" lon="6.387143488973379">
        <ele>650.76999999999998</ele>
        <time>2017-07-16T11:14:40Z</time>
      </trkpt>
      <trkpt lat="50.280370423570275" lon="6.3872632663697">
        <ele>651.64999999999998</ele>
        <time>2017-07-16T11:14:53Z</time>
      </trkpt>
      <trkpt lat="50.280201025307178" lon="6.387346498668194">
        <ele>653.61000000000001</ele>
        <time>2017-07-16T11:15:06Z</time>
      </trkpt>
      <trkpt lat="50.279970187693834" lon="6.387469377368689">
        <ele>655.49000000000001</ele>
        <time>2017-07-16T11:15:21Z</time>
      </trkpt>
      <trkpt lat="50.279750246554613" lon="6.387563422322273">
        <ele>657.28999999999996</ele>
        <time>2017-07-16T11:15:35Z</time>
      </trkpt>
      <trkpt lat="50.27970121242106" lon="6.387570463120937">
        <ele>657.27999999999997</ele>
        <time>2017-07-16T11:15:38Z</time>
      </trkpt>
      <trkpt lat="50.279641700908542" lon="6.387601559981704">
        <ele>658.15999999999997</ele>
        <time>2017-07-16T11:15:42Z</time>
      </trkpt>
      <trkpt lat="50.279574729502201" lon="6.387641541659832">
        <ele>658.15999999999997</ele>
        <time>2017-07-16T11:15:47Z</time>
      </trkpt>
      <trkpt lat="50.279511529952288" lon="6.387672470882535">
        <ele>660.17999999999995</ele>
        <time>2017-07-16T11:15:51Z</time>
      </trkpt>
      <trkpt lat="50.279400302097201" lon="6.387779507786036">
        <ele>660.17999999999995</ele>
        <time>2017-07-16T11:16:01Z</time>
      </trkpt>
      <trkpt lat="50.279335426166654" lon="6.387838013470173">
        <ele>660.17999999999995</ele>
        <time>2017-07-16T11:16:06Z</time>
      </trkpt>
      <trkpt lat="50.279279602691531" lon="6.387880844995379">
        <ele>660.19000000000005</ele>
        <time>2017-07-16T11:16:10Z</time>
      </trkpt>
      <trkpt lat="50.279249511659145" lon="6.38789308257401">
        <ele>661.10000000000002</ele>
        <time>2017-07-16T11:16:12Z</time>
      </trkpt>
      <trkpt lat="50.27906846255064" lon="6.388025600463152">
        <ele>661.85000000000002</ele>
        <time>2017-07-16T11:16:26Z</time>
      </trkpt>
      <trkpt lat="50.278889257460833" lon="6.388097936287522">
        <ele>662.65999999999997</ele>
        <time>2017-07-16T11:16:39Z</time>
      </trkpt>
      <trkpt lat="50.278649786487222" lon="6.388247888535261">
        <ele>663.45000000000005</ele>
        <time>2017-07-16T11:16:55Z</time>
      </trkpt>
      <trkpt lat="50.278483238071203" lon="6.388379903510213">
        <ele>664.20000000000005</ele>
        <time>2017-07-16T11:17:08Z</time>
      </trkpt>
      <trkpt lat="50.278295986354351" lon="6.388546451926231">
        <ele>664.20000000000005</ele>
        <time>2017-07-16T11:17:22Z</time>
      </trkpt>
      <trkpt lat="50.278223818168044" lon="6.388331204652786">
        <ele>664.19000000000005</ele>
        <time>2017-07-16T11:17:38Z</time>
      </trkpt>
      <trkpt lat="50.278147794306278" lon="6.388181000947952">
        <ele>664.17999999999995</ele>
        <time>2017-07-16T11:17:46Z</time>
      </trkpt>
      <trkpt lat="50.278090126812458" lon="6.388127021491528">
        <ele>664.19000000000005</ele>
        <time>2017-07-16T11:17:50Z</time>
      </trkpt>
      <trkpt lat="50.277835065498948" lon="6.388175468891859">
        <ele>664.20000000000005</ele>
        <time>2017-07-16T11:18:01Z</time>
      </trkpt>
      <trkpt lat="50.277562318369746" lon="6.387940272688866">
        <ele>664.20000000000005</ele>
        <time>2017-07-16T11:18:14Z</time>
      </trkpt>
      <trkpt lat="50.277289655059576" lon="6.387563673779368">
        <ele>664.20000000000005</ele>
        <time>2017-07-16T11:18:28Z</time>
      </trkpt>
      <trkpt lat="50.277054961770773" lon="6.38724273070693">
        <ele>664.20000000000005</ele>
        <time>2017-07-16T11:18:40Z</time>
      </trkpt>
      <trkpt lat="50.276936860755086" lon="6.387057742103934">
        <ele>664.21000000000004</ele>
        <time>2017-07-16T11:18:46Z</time>
      </trkpt>
      <trkpt lat="50.276648104190826" lon="6.38667980208993">
        <ele>664.21000000000004</ele>
        <time>2017-07-16T11:19:00Z</time>
      </trkpt>
      <trkpt lat="50.276378709822893" lon="6.386301694437861">
        <ele>665</ele>
        <time>2017-07-16T11:19:12Z</time>
      </trkpt>
      <trkpt lat="50.276189530268312" lon="6.385975386947393">
        <ele>664.99000000000001</ele>
        <time>2017-07-16T11:19:24Z</time>
      </trkpt>
      <trkpt lat="50.275940168648958" lon="6.385558135807514">
        <ele>664.99000000000001</ele>
        <time>2017-07-16T11:19:38Z</time>
      </trkpt>
      <trkpt lat="50.27576481923461" lon="6.385231660678983">
        <ele>666.01999999999998</ele>
        <time>2017-07-16T11:19:52Z</time>
      </trkpt>
      <trkpt lat="50.275538759306073" lon="6.384705780074">
        <ele>668.82000000000005</ele>
        <time>2017-07-16T11:20:07Z</time>
      </trkpt>
      <trkpt lat="50.275359889492393" lon="6.384630426764488">
        <ele>668.79999999999995</ele>
        <time>2017-07-16T11:20:22Z</time>
      </trkpt>
      <trkpt lat="50.275295181199908" lon="6.384587427601218">
        <ele>668.79999999999995</ele>
        <time>2017-07-16T11:20:27Z</time>
      </trkpt>
      <trkpt lat="50.275104241445661" lon="6.384419286623597">
        <ele>668.82000000000005</ele>
        <time>2017-07-16T11:20:45Z</time>
      </trkpt>
      <trkpt lat="50.274803331121802" lon="6.384152909740806">
        <ele>669.75</ele>
        <time>2017-07-16T11:21:08Z</time>
      </trkpt>
      <trkpt lat="50.274722026661038" lon="6.384130278602243">
        <ele>670.50999999999999</ele>
        <time>2017-07-16T11:21:13Z</time>
      </trkpt>
      <trkpt lat="50.27446755208075" lon="6.383808078244329">
        <ele>671.33000000000004</ele>
        <time>2017-07-16T11:21:33Z</time>
      </trkpt>
      <trkpt lat="50.274319276213646" lon="6.383686289191246">
        <ele>672.11000000000001</ele>
        <time>2017-07-16T11:21:45Z</time>
      </trkpt>
      <trkpt lat="50.274210060015321" lon="6.383422007784247">
        <ele>675.74000000000001</ele>
        <time>2017-07-16T11:22:01Z</time>
      </trkpt>
      <trkpt lat="50.273943096399307" lon="6.383228385820985">
        <ele>676.57000000000005</ele>
        <time>2017-07-16T11:22:21Z</time>
      </trkpt>
      <trkpt lat="50.273795323446393" lon="6.383092431351543">
        <ele>677.40999999999997</ele>
        <time>2017-07-16T11:22:33Z</time>
      </trkpt>
      <trkpt lat="50.27360362932086" lon="6.382841309532523">
        <ele>678.20000000000005</ele>
        <time>2017-07-16T11:22:48Z</time>
      </trkpt>
      <trkpt lat="50.273475889116526" lon="6.38266721740365">
        <ele>679.08000000000004</ele>
        <time>2017-07-16T11:23:02Z</time>
      </trkpt>
      <trkpt lat="50.273301210254431" lon="6.382496478036046">
        <ele>680.00999999999999</ele>
        <time>2017-07-16T11:23:13Z</time>
      </trkpt>
      <trkpt lat="50.273030810058117" lon="6.382199758663774">
        <ele>681.76999999999998</ele>
        <time>2017-07-16T11:23:35Z</time>
      </trkpt>
      <trkpt lat="50.272781616076827" lon="6.381968585774303">
        <ele>682.66999999999996</ele>
        <time>2017-07-16T11:23:54Z</time>
      </trkpt>
      <trkpt lat="50.272524543106556" lon="6.381670776754618">
        <ele>684.25999999999999</ele>
        <time>2017-07-16T11:24:15Z</time>
      </trkpt>
      <trkpt lat="50.272490596398711" lon="6.381594585254788">
        <ele>684.25999999999999</ele>
        <time>2017-07-16T11:24:21Z</time>
      </trkpt>
      <trkpt lat="50.272333351895213" lon="6.381390318274498">
        <ele>684.26999999999998</ele>
        <time>2017-07-16T11:24:44Z</time>
      </trkpt>
      <trkpt lat="50.272145178169012" lon="6.381102818995714">
        <ele>684.26999999999998</ele>
        <time>2017-07-16T11:25:01Z</time>
      </trkpt>
      <trkpt lat="50.271930769085884" lon="6.380637036636472">
        <ele>684.26999999999998</ele>
        <time>2017-07-16T11:25:20Z</time>
      </trkpt>
      <trkpt lat="50.271753994747996" lon="6.380259348079562">
        <ele>684.25</ele>
        <time>2017-07-16T11:25:36Z</time>
      </trkpt>
      <trkpt lat="50.271534975618124" lon="6.379816364496946">
        <ele>684.24000000000001</ele>
        <time>2017-07-16T11:26:00Z</time>
      </trkpt>
      <trkpt lat="50.271356021985412" lon="6.379555854946375">
        <ele>684.24000000000001</ele>
        <time>2017-07-16T11:26:15Z</time>
      </trkpt>
      <trkpt lat="50.2713359054178" lon="6.379507910460234">
        <ele>684.24000000000001</ele>
        <time>2017-07-16T11:26:18Z</time>
      </trkpt>
      <trkpt lat="50.271271616220474" lon="6.37941830791533">
        <ele>684.25</ele>
        <time>2017-07-16T11:26:25Z</time>
      </trkpt>
      <trkpt lat="50.271207746118307" lon="6.379330549389124">
        <ele>684.24000000000001</ele>
        <time>2017-07-16T11:26:31Z</time>
      </trkpt>
      <trkpt lat="50.271026194095612" lon="6.379057299345732">
        <ele>684.24000000000001</ele>
        <time>2017-07-16T11:26:45Z</time>
      </trkpt>
      <trkpt lat="50.27097531594336" lon="6.378985131159425">
        <ele>684.23000000000002</ele>
        <time>2017-07-16T11:26:49Z</time>
      </trkpt>
      <trkpt lat="50.27091764844954" lon="6.378921428695321">
        <ele>684.24000000000001</ele>
        <time>2017-07-16T11:26:55Z</time>
      </trkpt>
      <trkpt lat="50.270882025361061" lon="6.378878429532051">
        <ele>684.25</ele>
        <time>2017-07-16T11:26:59Z</time>
      </trkpt>
      <trkpt lat="50.270791919901967" lon="6.378769967705011">
        <ele>684.23000000000002</ele>
        <time>2017-07-16T11:27:06Z</time>
      </trkpt>
      <trkpt lat="50.270589664578438" lon="6.378530161455274">
        <ele>684.25999999999999</ele>
        <time>2017-07-16T11:27:25Z</time>
      </trkpt>
      <trkpt lat="50.270403837785125" lon="6.37839169241488">
        <ele>684.23000000000002</ele>
        <time>2017-07-16T11:27:41Z</time>
      </trkpt>
      <trkpt lat="50.27036695741117" lon="6.378370486199856">
        <ele>681.82000000000005</ele>
        <time>2017-07-16T11:27:44Z</time>
      </trkpt>
      <trkpt lat="50.270040817558765" lon="6.378123555332422">
        <ele>681.88</ele>
        <time>2017-07-16T11:28:04Z</time>
      </trkpt>
      <trkpt lat="50.269934115931392" lon="6.378053985536099">
        <ele>681.85000000000002</ele>
        <time>2017-07-16T11:28:12Z</time>
      </trkpt>
      <trkpt lat="50.26986270211637" lon="6.378030683845282">
        <ele>681.84000000000003</ele>
        <time>2017-07-16T11:28:16Z</time>
      </trkpt>
      <trkpt lat="50.269722556695342" lon="6.377952396869659">
        <ele>681.84000000000003</ele>
        <time>2017-07-16T11:28:26Z</time>
      </trkpt>
      <trkpt lat="50.269511584192514" lon="6.377712842077017">
        <ele>681.87</ele>
        <time>2017-07-16T11:28:45Z</time>
      </trkpt>
      <trkpt lat="50.269357776269317" lon="6.377584431320429">
        <ele>681.87</ele>
        <time>2017-07-16T11:28:56Z</time>
      </trkpt>
      <trkpt lat="50.269330451264977" lon="6.377568505704403">
        <ele>681.86000000000001</ele>
        <time>2017-07-16T11:28:58Z</time>
      </trkpt>
      <trkpt lat="50.269151832908392" lon="6.37739927507937">
        <ele>681.84000000000003</ele>
        <time>2017-07-16T11:29:10Z</time>
      </trkpt>
      <trkpt lat="50.269127441570163" lon="6.377379577606916">
        <ele>681.85000000000002</ele>
        <time>2017-07-16T11:29:12Z</time>
      </trkpt>
      <trkpt lat="50.268909344449639" lon="6.37721604667604">
        <ele>681.87</ele>
        <time>2017-07-16T11:29:28Z</time>
      </trkpt>
      <trkpt lat="50.268756793811917" lon="6.377157038077712">
        <ele>681.86000000000001</ele>
        <time>2017-07-16T11:29:40Z</time>
      </trkpt>
      <trkpt lat="50.268599800765514" lon="6.377017311751843">
        <ele>681.88999999999999</ele>
        <time>2017-07-16T11:29:53Z</time>
      </trkpt>
      <trkpt lat="50.268246335908771" lon="6.376814637333155">
        <ele>681.86000000000001</ele>
        <time>2017-07-16T11:30:16Z</time>
      </trkpt>
      <trkpt lat="50.268215406686068" lon="6.376800974830985">
        <ele>681.86000000000001</ele>
        <time>2017-07-16T11:30:18Z</time>
      </trkpt>
      <trkpt lat="50.268170982599258" lon="6.376729141920805">
        <ele>684.27999999999997</ele>
        <time>2017-07-16T11:30:21Z</time>
      </trkpt>
      <trkpt lat="50.267884656786919" lon="6.376437367871404">
        <ele>684.25</ele>
        <time>2017-07-16T11:30:44Z</time>
      </trkpt>
      <trkpt lat="50.267475368455052" lon="6.376004777848721">
        <ele>685.04999999999995</ele>
        <time>2017-07-16T11:31:17Z</time>
      </trkpt>
      <trkpt lat="50.267443433403969" lon="6.375977285206318">
        <ele>685.03999999999996</ele>
        <time>2017-07-16T11:31:19Z</time>
      </trkpt>
      <trkpt lat="50.267188204452395" lon="6.375892879441381">
        <ele>686.67999999999995</ele>
        <time>2017-07-16T11:31:37Z</time>
      </trkpt>
      <trkpt lat="50.266806911677122" lon="6.376191023737192">
        <ele>687.40999999999997</ele>
        <time>2017-07-16T11:32:03Z</time>
      </trkpt>
      <trkpt lat="50.266756620258093" lon="6.37628129683435">
        <ele>687.39999999999998</ele>
        <time>2017-07-16T11:32:13Z</time>
      </trkpt>
      <trkpt lat="50.266681183129549" lon="6.376341562718153">
        <ele>687.38</ele>
        <time>2017-07-16T11:32:23Z</time>
      </trkpt>
      <trkpt lat="50.266592083498836" lon="6.376427812501788">
        <ele>685.08000000000004</ele>
        <time>2017-07-16T11:32:33Z</time>
      </trkpt>
      <trkpt lat="50.266458140686154" lon="6.376678347587585">
        <ele>684.27999999999997</ele>
        <time>2017-07-16T11:32:48Z</time>
      </trkpt>
      <trkpt lat="50.266215736046433" lon="6.376985292881727">
        <ele>680.88999999999999</ele>
        <time>2017-07-16T11:33:17Z</time>
      </trkpt>
      <trkpt lat="50.266193188726902" lon="6.376884793862701">
        <ele>680.98000000000002</ele>
        <time>2017-07-16T11:33:29Z</time>
      </trkpt>
      <trkpt lat="50.266144154593349" lon="6.37677138671279">
        <ele>683.45000000000005</ele>
        <time>2017-07-16T11:33:38Z</time>
      </trkpt>
      <trkpt lat="50.266139712184668" lon="6.376655464991927">
        <ele>683.41999999999996</ele>
        <time>2017-07-16T11:33:47Z</time>
      </trkpt>
      <trkpt lat="50.266127893701196" lon="6.376426555216312">
        <ele>684.21000000000004</ele>
        <time>2017-07-16T11:33:59Z</time>
      </trkpt>
      <trkpt lat="50.266108950600028" lon="6.376234525814652">
        <ele>684.23000000000002</ele>
        <time>2017-07-16T11:34:07Z</time>
      </trkpt>
      <trkpt lat="50.265953717753291" lon="6.375836469233036">
        <ele>685.87</ele>
        <time>2017-07-16T11:34:24Z</time>
      </trkpt>
      <trkpt lat="50.265829917043447" lon="6.375624071806669">
        <ele>685.85000000000002</ele>
        <time>2017-07-16T11:34:33Z</time>
      </trkpt>
      <trkpt lat="50.265569323673844" lon="6.375124761834741">
        <ele>685.83000000000004</ele>
        <time>2017-07-16T11:34:57Z</time>
      </trkpt>
      <trkpt lat="50.265394560992718" lon="6.374763501808047">
        <ele>685.85000000000002</ele>
        <time>2017-07-16T11:35:18Z</time>
      </trkpt>
      <trkpt lat="50.265127429738641" lon="6.374333510175347">
        <ele>686.73000000000002</ele>
        <time>2017-07-16T11:35:28Z</time>
      </trkpt>
      <trkpt lat="50.264531811699271" lon="6.374385142698884">
        <ele>685.17999999999995</ele>
        <time>2017-07-16T11:52:09Z</time>
      </trkpt>
      <trkpt lat="50.264507587999105" lon="6.374247511848807">
        <ele>685.10000000000002</ele>
        <time>2017-07-16T13:36:24Z</time>
      </trkpt>
      <trkpt lat="50.264950403943658" lon="6.374083394184709">
        <ele>685.05999999999995</ele>
        <time>2017-07-16T13:36:28Z</time>
      </trkpt>
      <trkpt lat="50.264990972355008" lon="6.374049950391054">
        <ele>685.11000000000001</ele>
        <time>2017-07-16T13:36:30Z</time>
      </trkpt>
      <trkpt lat="50.265098009258509" lon="6.373823722824454">
        <ele>686.08000000000004</ele>
        <time>2017-07-16T13:36:46Z</time>
      </trkpt>
      <trkpt lat="50.265111671760678" lon="6.373831182718277">
        <ele>686.07000000000005</ele>
        <time>2017-07-16T13:36:47Z</time>
      </trkpt>
      <trkpt lat="50.265215439721942" lon="6.373989265412092">
        <ele>686.05999999999995</ele>
        <time>2017-07-16T13:36:57Z</time>
      </trkpt>
      <trkpt lat="50.265250308439136" lon="6.374060595408082">
        <ele>686.04999999999995</ele>
        <time>2017-07-16T13:37:01Z</time>
      </trkpt>
      <trkpt lat="50.265345694497228" lon="6.37427793815732">
        <ele>686.02999999999997</ele>
        <time>2017-07-16T13:37:16Z</time>
      </trkpt>
      <trkpt lat="50.265490617603064" lon="6.374531323090196">
        <ele>686.02999999999997</ele>
        <time>2017-07-16T13:37:37Z</time>
      </trkpt>
      <trkpt lat="50.265612155199051" lon="6.374806836247444">
        <ele>686.01999999999998</ele>
        <time>2017-07-16T13:37:57Z</time>
      </trkpt>
      <trkpt lat="50.26564484462142" lon="6.374871041625738">
        <ele>686.07000000000005</ele>
        <time>2017-07-16T13:38:03Z</time>
      </trkpt>
      <trkpt lat="50.265907198190689" lon="6.375222997739911">
        <ele>686.02999999999997</ele>
        <time>2017-07-16T13:38:26Z</time>
      </trkpt>
      <trkpt lat="50.266063520684838" lon="6.375417290255427">
        <ele>686.01999999999998</ele>
        <time>2017-07-16T13:38:40Z</time>
      </trkpt>
      <trkpt lat="50.266174077987671" lon="6.375674027949572">
        <ele>686.00999999999999</ele>
        <time>2017-07-16T13:38:55Z</time>
      </trkpt>
      <trkpt lat="50.26624197140336" lon="6.376050962135196">
        <ele>686.00999999999999</ele>
        <time>2017-07-16T13:39:13Z</time>
      </trkpt>
      <trkpt lat="50.266268374398351" lon="6.376202926039696">
        <ele>683.65999999999997</ele>
        <time>2017-07-16T13:39:21Z</time>
      </trkpt>
      <trkpt lat="50.26627809740603" lon="6.376476930454373">
        <ele>683.63999999999999</ele>
        <time>2017-07-16T13:39:38Z</time>
      </trkpt>
      <trkpt lat="50.266247587278485" lon="6.376730566844344">
        <ele>682.61000000000001</ele>
        <time>2017-07-16T13:39:49Z</time>
      </trkpt>
      <trkpt lat="50.266245910897851" lon="6.376791503280401">
        <ele>682.61000000000001</ele>
        <time>2017-07-16T13:39:52Z</time>
      </trkpt>
      <trkpt lat="50.266895173117518" lon="6.375855831429362">
        <ele>687.55999999999995</ele>
        <time>2017-07-16T13:42:25Z</time>
      </trkpt>
      <trkpt lat="50.266962731257081" lon="6.37580243870616">
        <ele>687.53999999999996</ele>
        <time>2017-07-16T13:42:32Z</time>
      </trkpt>
      <trkpt lat="50.267115281894803" lon="6.37579221278429">
        <ele>687.79999999999995</ele>
        <time>2017-07-16T13:42:47Z</time>
      </trkpt>
      <trkpt lat="50.267337653785944" lon="6.375838816165924">
        <ele>687.83000000000004</ele>
        <time>2017-07-16T13:43:05Z</time>
      </trkpt>
      <trkpt lat="50.267546027898788" lon="6.375955743715167">
        <ele>687.82000000000005</ele>
        <time>2017-07-16T13:43:19Z</time>
      </trkpt>
      <trkpt lat="50.26770344004035" lon="6.376068647950888">
        <ele>687.82000000000005</ele>
        <time>2017-07-16T13:43:33Z</time>
      </trkpt>
      <trkpt lat="50.267762448638678" lon="6.376122543588281">
        <ele>685.48000000000002</ele>
        <time>2017-07-16T13:43:37Z</time>
      </trkpt>
      <trkpt lat="50.267837969586253" lon="6.376174595206976">
        <ele>685.49000000000001</ele>
        <time>2017-07-16T13:43:41Z</time>
      </trkpt>
      <trkpt lat="50.267896391451359" lon="6.376286745071411">
        <ele>684.17999999999995</ele>
        <time>2017-07-16T13:43:48Z</time>
      </trkpt>
      <trkpt lat="50.268024718388915" lon="6.376451952382922">
        <ele>684.16999999999996</ele>
        <time>2017-07-16T13:44:00Z</time>
      </trkpt>
      <trkpt lat="50.268230494111776" lon="6.376643646508455">
        <ele>684.17999999999995</ele>
        <time>2017-07-16T13:44:21Z</time>
      </trkpt>
      <trkpt lat="50.268625030294061" lon="6.376968361437321">
        <ele>683.00999999999999</ele>
        <time>2017-07-16T13:44:59Z</time>
      </trkpt>
      <trkpt lat="50.268873553723097" lon="6.377051090821624">
        <ele>683.00999999999999</ele>
        <time>2017-07-16T13:45:17Z</time>
      </trkpt>
      <trkpt lat="50.269155604764819" lon="6.377216298133135">
        <ele>682.23000000000002</ele>
        <time>2017-07-16T13:45:39Z</time>
      </trkpt>
      <trkpt lat="50.26942340657115" lon="6.377463480457664">
        <ele>682.22000000000003</ele>
        <time>2017-07-16T13:45:58Z</time>
      </trkpt>
      <trkpt lat="50.26966136880219" lon="6.377753661945462">
        <ele>682.23000000000002</ele>
        <time>2017-07-16T13:46:15Z</time>
      </trkpt>
      <trkpt lat="50.269867312163115" lon="6.377820549532771">
        <ele>682.25</ele>
        <time>2017-07-16T13:46:36Z</time>
      </trkpt>
      <trkpt lat="50.269941324368119" lon="6.377886263653636">
        <ele>682.22000000000003</ele>
        <time>2017-07-16T13:46:41Z</time>
      </trkpt>
      <trkpt lat="50.270139472559094" lon="6.378036048263311">
        <ele>682.25</ele>
        <time>2017-07-16T13:47:03Z</time>
      </trkpt>
      <trkpt lat="50.270333597436547" lon="6.378154652193189">
        <ele>682.24000000000001</ele>
        <time>2017-07-16T13:47:18Z</time>
      </trkpt>
      <trkpt lat="50.270512215793133" lon="6.378379287198186">
        <ele>682.25</ele>
        <time>2017-07-16T13:47:32Z</time>
      </trkpt>
      <trkpt lat="50.27076467871666" lon="6.378570729866624">
        <ele>682.24000000000001</ele>
        <time>2017-07-16T13:47:51Z</time>
      </trkpt>
      <trkpt lat="50.270920833572745" lon="6.378715904429555">
        <ele>682.25</ele>
        <time>2017-07-16T13:48:09Z</time>
      </trkpt>
      <trkpt lat="50.271125603467226" lon="6.378826880827546">
        <ele>684.52999999999997</ele>
        <time>2017-07-16T13:48:17Z</time>
      </trkpt>
      <trkpt lat="50.271358788013458" lon="6.378893097862601">
        <ele>684.51999999999998</ele>
        <time>2017-07-16T13:48:33Z</time>
      </trkpt>
      <trkpt lat="50.271625583991408" lon="6.378659829497337">
        <ele>684.50999999999999</ele>
        <time>2017-07-16T13:48:50Z</time>
      </trkpt>
      <trkpt lat="50.27173220179975" lon="6.37844005599618">
        <ele>684.51999999999998</ele>
        <time>2017-07-16T13:49:04Z</time>
      </trkpt>
      <trkpt lat="50.271797413006425" lon="6.378273759037256">
        <ele>684.51999999999998</ele>
        <time>2017-07-16T13:49:14Z</time>
      </trkpt>
      <trkpt lat="50.271847452968359" lon="6.378204943612218">
        <ele>684.50999999999999</ele>
        <time>2017-07-16T13:49:19Z</time>
      </trkpt>
      <trkpt lat="50.27192423120141" lon="6.378041161224246">
        <ele>684.5</ele>
        <time>2017-07-16T13:49:28Z</time>
      </trkpt>
      <trkpt lat="50.271968236193061" lon="6.377968741580844">
        <ele>684.5</ele>
        <time>2017-07-16T13:49:32Z</time>
      </trkpt>
      <trkpt lat="50.272078961133957" lon="6.37762600556016">
        <ele>684.49000000000001</ele>
        <time>2017-07-16T13:49:49Z</time>
      </trkpt>
      <trkpt lat="50.272145429626107" lon="6.377419224008918">
        <ele>685.37</ele>
        <time>2017-07-16T13:50:04Z</time>
      </trkpt>
      <trkpt lat="50.272163450717926" lon="6.377397431060672">
        <ele>683.04999999999995</ele>
        <time>2017-07-16T13:50:06Z</time>
      </trkpt>
      <trkpt lat="50.272244000807405" lon="6.37720531783998">
        <ele>683.05999999999995</ele>
        <time>2017-07-16T13:50:18Z</time>
      </trkpt>
      <trkpt lat="50.272292196750641" lon="6.377164665609598">
        <ele>683.05999999999995</ele>
        <time>2017-07-16T13:50:20Z</time>
      </trkpt>
      <trkpt lat="50.272318432107568" lon="6.37705285102129">
        <ele>682.29999999999995</ele>
        <time>2017-07-16T13:50:28Z</time>
      </trkpt>
      <trkpt lat="50.272304099053144" lon="6.376909520477057">
        <ele>682.27999999999997</ele>
        <time>2017-07-16T13:50:36Z</time>
      </trkpt>
      <trkpt lat="50.272313402965665" lon="6.3766516931355">
        <ele>681.46000000000004</ele>
        <time>2017-07-16T13:50:50Z</time>
      </trkpt>
      <trkpt lat="50.272317342460155" lon="6.376615650951862">
        <ele>679.38</ele>
        <time>2017-07-16T13:50:52Z</time>
      </trkpt>
      <trkpt lat="50.272322874516249" lon="6.376547003164887">
        <ele>682.51999999999998</ele>
        <time>2017-07-16T13:50:56Z</time>
      </trkpt>
      <trkpt lat="50.272322706878185" lon="6.376532418653369">
        <ele>682.50999999999999</ele>
        <time>2017-07-16T13:50:57Z</time>
      </trkpt>
      <trkpt lat="50.272402418777347" lon="6.376351369544864">
        <ele>680.12</ele>
        <time>2017-07-16T13:51:09Z</time>
      </trkpt>
      <trkpt lat="50.272479532286525" lon="6.375965215265751">
        <ele>679.34000000000003</ele>
        <time>2017-07-16T13:51:29Z</time>
      </trkpt>
      <trkpt lat="50.272458074614406" lon="6.375528015196323">
        <ele>677.70000000000005</ele>
        <time>2017-07-16T13:51:51Z</time>
      </trkpt>
      <trkpt lat="50.272330585867167" lon="6.375076901167631">
        <ele>676.88</ele>
        <time>2017-07-16T13:52:09Z</time>
      </trkpt>
      <trkpt lat="50.272290101274848" lon="6.374920830130577">
        <ele>676.88</ele>
        <time>2017-07-16T13:52:17Z</time>
      </trkpt>
      <trkpt lat="50.272266296669841" lon="6.374824270606041">
        <ele>676.02999999999997</ele>
        <time>2017-07-16T13:52:20Z</time>
      </trkpt>
      <trkpt lat="50.272252634167671" lon="6.374724609777331">
        <ele>676.04999999999995</ele>
        <time>2017-07-16T13:52:24Z</time>
      </trkpt>
      <trkpt lat="50.272230673581362" lon="6.374573651701212">
        <ele>676.03999999999996</ele>
        <time>2017-07-16T13:52:28Z</time>
      </trkpt>
      <trkpt lat="50.27224182151258" lon="6.374496873468161">
        <ele>676.04999999999995</ele>
        <time>2017-07-16T13:52:32Z</time>
      </trkpt>
      <trkpt lat="50.272253723815084" lon="6.374437781050801">
        <ele>674.61000000000001</ele>
        <time>2017-07-16T13:52:34Z</time>
      </trkpt>
      <trkpt lat="50.272326646372676" lon="6.374065121635795">
        <ele>674.60000000000002</ele>
        <time>2017-07-16T13:52:47Z</time>
      </trkpt>
      <trkpt lat="50.272364867851138" lon="6.373947272077203">
        <ele>673.75</ele>
        <time>2017-07-16T13:52:52Z</time>
      </trkpt>
      <trkpt lat="50.27242605574429" lon="6.373746357858181">
        <ele>672.98000000000002</ele>
        <time>2017-07-16T13:53:01Z</time>
      </trkpt>
      <trkpt lat="50.272449860349298" lon="6.37364468537271">
        <ele>672.96000000000004</ele>
        <time>2017-07-16T13:53:06Z</time>
      </trkpt>
      <trkpt lat="50.272479029372334" lon="6.373459193855524">
        <ele>672.15999999999997</ele>
        <time>2017-07-16T13:53:14Z</time>
      </trkpt>
      <trkpt lat="50.272505600005388" lon="6.373074967414141">
        <ele>669.82000000000005</ele>
        <time>2017-07-16T13:53:31Z</time>
      </trkpt>
      <trkpt lat="50.272522615268826" lon="6.373003637418151">
        <ele>668.59000000000003</ele>
        <time>2017-07-16T13:53:35Z</time>
      </trkpt>
      <trkpt lat="50.272546000778675" lon="6.372878579422832">
        <ele>670.78999999999996</ele>
        <time>2017-07-16T13:53:43Z</time>
      </trkpt>
      <trkpt lat="50.272555891424417" lon="6.372840106487274">
        <ele>668.15999999999997</ele>
        <time>2017-07-16T13:53:45Z</time>
      </trkpt>
      <trkpt lat="50.272589335218072" lon="6.372325122356415">
        <ele>665.39999999999998</ele>
        <time>2017-07-16T13:54:04Z</time>
      </trkpt>
      <trkpt lat="50.27266401797533" lon="6.372029911726713">
        <ele>662.33000000000004</ele>
        <time>2017-07-16T13:54:19Z</time>
      </trkpt>
      <trkpt lat="50.272666784003377" lon="6.371992025524378">
        <ele>662.27999999999997</ele>
        <time>2017-07-16T13:54:20Z</time>
      </trkpt>
      <trkpt lat="50.272725541144609" lon="6.371764624491334">
        <ele>661.07000000000005</ele>
        <time>2017-07-16T13:54:31Z</time>
      </trkpt>
      <trkpt lat="50.272760661318898" lon="6.371672758832574">
        <ele>661.05999999999995</ele>
        <time>2017-07-16T13:54:36Z</time>
      </trkpt>
      <trkpt lat="50.272847162559628" lon="6.371445776894689">
        <ele>659.30999999999995</ele>
        <time>2017-07-16T13:54:48Z</time>
      </trkpt>
      <trkpt lat="50.272896280512214" lon="6.371363382786512">
        <ele>658.5</ele>
        <time>2017-07-16T13:54:54Z</time>
      </trkpt>
      <trkpt lat="50.272912792861462" lon="6.371344858780503">
        <ele>657.70000000000005</ele>
        <time>2017-07-16T13:54:56Z</time>
      </trkpt>
      <trkpt lat="50.272931903600693" lon="6.371269170194864">
        <ele>656.76999999999998</ele>
        <time>2017-07-16T13:55:00Z</time>
      </trkpt>
      <trkpt lat="50.272965682670474" lon="6.371179986745119">
        <ele>655.88</ele>
        <time>2017-07-16T13:55:05Z</time>
      </trkpt>
      <trkpt lat="50.272968197241426" lon="6.370917214080691">
        <ele>654.05999999999995</ele>
        <time>2017-07-16T13:55:16Z</time>
      </trkpt>
      <trkpt lat="50.272979428991675" lon="6.370800454169512">
        <ele>653.22000000000003</ele>
        <time>2017-07-16T13:55:21Z</time>
      </trkpt>
      <trkpt lat="50.273041538894176" lon="6.370570287108421">
        <ele>652.5</ele>
        <time>2017-07-16T13:55:34Z</time>
      </trkpt>
      <trkpt lat="50.273117898032069" lon="6.3704246096313">
        <ele>651.71000000000004</ele>
        <time>2017-07-16T13:55:43Z</time>
      </trkpt>
      <trkpt lat="50.273234825581312" lon="6.370263425633311">
        <ele>649.42999999999995</ele>
        <time>2017-07-16T13:55:53Z</time>
      </trkpt>
      <trkpt lat="50.273245302960277" lon="6.370251355692744">
        <ele>649.44000000000005</ele>
        <time>2017-07-16T13:55:54Z</time>
      </trkpt>
      <trkpt lat="50.273321494460106" lon="6.370177762582898">
        <ele>649.42999999999995</ele>
        <time>2017-07-16T13:55:59Z</time>
      </trkpt>
      <trkpt lat="50.273370025679469" lon="6.370061002671719">
        <ele>648.51999999999998</ele>
        <time>2017-07-16T13:56:04Z</time>
      </trkpt>
      <trkpt lat="50.273400116711855" lon="6.37000534683466">
        <ele>647.57000000000005</ele>
        <time>2017-07-16T13:56:07Z</time>
      </trkpt>
      <trkpt lat="50.273497514426708" lon="6.369755147024989">
        <ele>644.92999999999995</ele>
        <time>2017-07-16T13:56:20Z</time>
      </trkpt>
      <trkpt lat="50.273550236597657" lon="6.369519615545869">
        <ele>643.40999999999997</ele>
        <time>2017-07-16T13:56:31Z</time>
      </trkpt>
      <trkpt lat="50.273599941283464" lon="6.36934963054955">
        <ele>643.45000000000005</ele>
        <time>2017-07-16T13:56:45Z</time>
      </trkpt>
      <trkpt lat="50.273635732010007" lon="6.369132958352566">
        <ele>641.88999999999999</ele>
        <time>2017-07-16T13:57:02Z</time>
      </trkpt>
      <trkpt lat="50.273704128339887" lon="6.368873035535216">
        <ele>639.44000000000005</ele>
        <time>2017-07-16T13:57:20Z</time>
      </trkpt>
      <trkpt lat="50.273723574355245" lon="6.368839591741562">
        <ele>638.09000000000003</ele>
        <time>2017-07-16T13:57:22Z</time>
      </trkpt>
      <trkpt lat="50.273745618760586" lon="6.368759041652083">
        <ele>637.05999999999995</ele>
        <time>2017-07-16T13:57:26Z</time>
      </trkpt>
      <trkpt lat="50.273781409487128" lon="6.368654267862439">
        <ele>637.07000000000005</ele>
        <time>2017-07-16T13:57:31Z</time>
      </trkpt>
      <trkpt lat="50.273818206042051" lon="6.368414629250765">
        <ele>635.24000000000001</ele>
        <time>2017-07-16T13:57:43Z</time>
      </trkpt>
      <trkpt lat="50.273823402822018" lon="6.368373306468129">
        <ele>635.23000000000002</ele>
        <time>2017-07-16T13:57:44Z</time>
      </trkpt>
      <trkpt lat="50.273848045617342" lon="6.36818278580904">
        <ele>634.25999999999999</ele>
        <time>2017-07-16T13:57:53Z</time>
      </trkpt>
      <trkpt lat="50.273881573230028" lon="6.367824710905552">
        <ele>632.62</ele>
        <time>2017-07-16T13:58:08Z</time>
      </trkpt>
      <trkpt lat="50.273940246552229" lon="6.367711219936609">
        <ele>631.77999999999997</ele>
        <time>2017-07-16T13:58:17Z</time>
      </trkpt>
      <trkpt lat="50.27396229095757" lon="6.367400754243136">
        <ele>628.39999999999998</ele>
        <time>2017-07-16T13:58:33Z</time>
      </trkpt>
      <trkpt lat="50.274002021178603" lon="6.366990962997079">
        <ele>626</ele>
        <time>2017-07-16T13:58:52Z</time>
      </trkpt>
      <trkpt lat="50.274043679237366" lon="6.36653951369226">
        <ele>623.51999999999998</ele>
        <time>2017-07-16T13:59:12Z</time>
      </trkpt>
      <trkpt lat="50.274086594581604" lon="6.366191916167736">
        <ele>622.65999999999997</ele>
        <time>2017-07-16T13:59:27Z</time>
      </trkpt>
      <trkpt lat="50.274130096659064" lon="6.365957222878933">
        <ele>621.79999999999995</ele>
        <time>2017-07-16T13:59:39Z</time>
      </trkpt>
      <trkpt lat="50.274138897657394" lon="6.365823531523347">
        <ele>620.98000000000002</ele>
        <time>2017-07-16T13:59:45Z</time>
      </trkpt>
      <trkpt lat="50.274103274568915" lon="6.365473754703999">
        <ele>620.21000000000004</ele>
        <time>2017-07-16T13:59:59Z</time>
      </trkpt>
      <trkpt lat="50.274123391136527" lon="6.365306535735726">
        <ele>619.45000000000005</ele>
        <time>2017-07-16T14:00:07Z</time>
      </trkpt>
      <trkpt lat="50.274129258468747" lon="6.365103358402848">
        <ele>618.66999999999996</ele>
        <time>2017-07-16T14:00:15Z</time>
      </trkpt>
      <trkpt lat="50.274220537394285" lon="6.364815020933747">
        <ele>617.04999999999995</ele>
        <time>2017-07-16T14:00:29Z</time>
      </trkpt>
      <trkpt lat="50.274317851290107" lon="6.364638498052955">
        <ele>616.14999999999998</ele>
        <time>2017-07-16T14:00:39Z</time>
      </trkpt>
      <trkpt lat="50.274370908737183" lon="6.364506985992193">
        <ele>613.65999999999997</ele>
        <time>2017-07-16T14:00:45Z</time>
      </trkpt>
      <trkpt lat="50.2743976470083" lon="6.364447474479675">
        <ele>613.66999999999996</ele>
        <time>2017-07-16T14:00:48Z</time>
      </trkpt>
      <trkpt lat="50.274475179612637" lon="6.36432409286499">
        <ele>613.67999999999995</ele>
        <time>2017-07-16T14:00:56Z</time>
      </trkpt>
      <trkpt lat="50.274548688903451" lon="6.36412912979722">
        <ele>613.66999999999996</ele>
        <time>2017-07-16T14:01:07Z</time>
      </trkpt>
      <trkpt lat="50.274653127416968" lon="6.363823357969523">
        <ele>610.98000000000002</ele>
        <time>2017-07-16T14:01:27Z</time>
      </trkpt>
      <trkpt lat="50.274709705263376" lon="6.363700563088059">
        <ele>609.37</ele>
        <time>2017-07-16T14:01:33Z</time>
      </trkpt>
      <trkpt lat="50.274852113798261" lon="6.363243162631989">
        <ele>607.60000000000002</ele>
        <time>2017-07-16T14:01:57Z</time>
      </trkpt>
      <trkpt lat="50.27496007271111" lon="6.36309714987874">
        <ele>606.78999999999996</ele>
        <time>2017-07-16T14:02:04Z</time>
      </trkpt>
      <trkpt lat="50.275051267817616" lon="6.362923812121153">
        <ele>605.86000000000001</ele>
        <time>2017-07-16T14:02:12Z</time>
      </trkpt>
      <trkpt lat="50.275336839258671" lon="6.362607982009649">
        <ele>602.45000000000005</ele>
        <time>2017-07-16T14:02:29Z</time>
      </trkpt>
      <trkpt lat="50.275555774569511" lon="6.362350741401315">
        <ele>600.49000000000001</ele>
        <time>2017-07-16T14:02:46Z</time>
      </trkpt>
      <trkpt lat="50.275766663253307" lon="6.36213943362236">
        <ele>597.91999999999996</ele>
        <time>2017-07-16T14:03:03Z</time>
      </trkpt>
      <trkpt lat="50.275856433436275" lon="6.362089812755585">
        <ele>596.09000000000003</ele>
        <time>2017-07-16T14:03:19Z</time>
      </trkpt>
      <trkpt lat="50.275868754833937" lon="6.3620665948838">
        <ele>596.10000000000002</ele>
        <time>2017-07-16T14:03:41Z</time>
      </trkpt>
      <trkpt lat="50.275941258296371" lon="6.362027870491147">
        <ele>596.10000000000002</ele>
        <time>2017-07-16T14:04:47Z</time>
      </trkpt>
      <trkpt lat="50.276001105085015" lon="6.361964754760265">
        <ele>596.10000000000002</ele>
        <time>2017-07-16T14:05:14Z</time>
      </trkpt>
      <trkpt lat="50.276188859716058" lon="6.361771635711193">
        <ele>592.60000000000002</ele>
        <time>2017-07-16T14:05:34Z</time>
      </trkpt>
      <trkpt lat="50.276201516389847" lon="6.361758392304182">
        <ele>592.59000000000003</ele>
        <time>2017-07-16T14:05:35Z</time>
      </trkpt>
      <trkpt lat="50.276252143085003" lon="6.361683458089829">
        <ele>591.82000000000005</ele>
        <time>2017-07-16T14:05:40Z</time>
      </trkpt>
      <trkpt lat="50.276362029835582" lon="6.361553287133575">
        <ele>589.22000000000003</ele>
        <time>2017-07-16T14:05:51Z</time>
      </trkpt>
      <trkpt lat="50.276538720354438" lon="6.361378692090511">
        <ele>588.01999999999998</ele>
        <time>2017-07-16T14:06:05Z</time>
      </trkpt>
      <trkpt lat="50.276733934879303" lon="6.361188925802708">
        <ele>585.61000000000001</ele>
        <time>2017-07-16T14:06:21Z</time>
      </trkpt>
      <trkpt lat="50.276909116655588" lon="6.361066717654467">
        <ele>583.12</ele>
        <time>2017-07-16T14:06:37Z</time>
      </trkpt>
      <trkpt lat="50.276990924030542" lon="6.36099262163043">
        <ele>583.12</ele>
        <time>2017-07-16T14:06:43Z</time>
      </trkpt>
      <trkpt lat="50.277199884876609" lon="6.360844178125262">
        <ele>580.74000000000001</ele>
        <time>2017-07-16T14:07:00Z</time>
      </trkpt>
      <trkpt lat="50.277211284264922" lon="6.360840070992708">
        <ele>580.75</ele>
        <time>2017-07-16T14:07:01Z</time>
      </trkpt>
      <trkpt lat="50.277428794652224" lon="6.361103346571326">
        <ele>577.33000000000004</ele>
        <time>2017-07-16T14:07:15Z</time>
      </trkpt>
      <trkpt lat="50.277434075251222" lon="6.361123211681843">
        <ele>577.33000000000004</ele>
        <time>2017-07-16T14:07:16Z</time>
      </trkpt>
      <trkpt lat="50.277440110221505" lon="6.361178448423743">
        <ele>579.75</ele>
        <time>2017-07-16T14:07:18Z</time>
      </trkpt>
      <trkpt lat="50.277525102719665" lon="6.361376345157623">
        <ele>577.41999999999996</ele>
        <time>2017-07-16T14:07:28Z</time>
      </trkpt>
      <trkpt lat="50.277644377201796" lon="6.361654037609696">
        <ele>573.78999999999996</ele>
        <time>2017-07-16T14:07:38Z</time>
      </trkpt>
      <trkpt lat="50.277783935889602" lon="6.362034576013684">
        <ele>570.02999999999997</ele>
        <time>2017-07-16T14:07:48Z</time>
      </trkpt>
      <trkpt lat="50.277956183999777" lon="6.362481331452727">
        <ele>569.25999999999999</ele>
        <time>2017-07-16T14:07:59Z</time>
      </trkpt>
      <trkpt lat="50.278134467080235" lon="6.362821804359555">
        <ele>568.5</ele>
        <time>2017-07-16T14:08:11Z</time>
      </trkpt>
      <trkpt lat="50.278228260576725" lon="6.362852985039353">
        <ele>566.94000000000005</ele>
        <time>2017-07-16T14:08:24Z</time>
      </trkpt>
      <trkpt lat="50.278420625254512" lon="6.36290947906673">
        <ele>564.52999999999997</ele>
        <time>2017-07-16T14:08:45Z</time>
      </trkpt>
      <trkpt lat="50.278451638296247" lon="6.362914172932506">
        <ele>562.11000000000001</ele>
        <time>2017-07-16T14:08:47Z</time>
      </trkpt>
      <trkpt lat="50.278507713228464" lon="6.362922638654709">
        <ele>564.58000000000004</ele>
        <time>2017-07-16T14:08:50Z</time>
      </trkpt>
      <trkpt lat="50.278642410412431" lon="6.362949712201953">
        <ele>562.25</ele>
        <time>2017-07-16T14:08:59Z</time>
      </trkpt>
      <trkpt lat="50.278713153675199" lon="6.362977037206292">
        <ele>560.66999999999996</ele>
        <time>2017-07-16T14:09:05Z</time>
      </trkpt>
      <trkpt lat="50.278928820043802" lon="6.363086756318808">
        <ele>561.08000000000004</ele>
        <time>2017-07-16T14:09:25Z</time>
      </trkpt>
      <trkpt lat="50.27905086055398" lon="6.363135790452361">
        <ele>557.54999999999995</ele>
        <time>2017-07-16T14:09:33Z</time>
      </trkpt>
      <trkpt lat="50.279108276590705" lon="6.363183399662376">
        <ele>557.54999999999995</ele>
        <time>2017-07-16T14:09:37Z</time>
      </trkpt>
      <trkpt lat="50.279253283515573" lon="6.363069573417306">
        <ele>555.79999999999995</ele>
        <time>2017-07-16T14:09:44Z</time>
      </trkpt>
      <trkpt lat="50.279347915202379" lon="6.362802777439356">
        <ele>553.96000000000004</ele>
        <time>2017-07-16T14:10:00Z</time>
      </trkpt>
      <trkpt lat="50.279448498040438" lon="6.362545704469085">
        <ele>552.33000000000004</ele>
        <time>2017-07-16T14:10:15Z</time>
      </trkpt>
      <trkpt lat="50.279579842463136" lon="6.362317716702819">
        <ele>550.5</ele>
        <time>2017-07-16T14:10:31Z</time>
      </trkpt>
      <trkpt lat="50.27990304864943" lon="6.362146642059088">
        <ele>548.88</ele>
        <time>2017-07-16T14:10:46Z</time>
      </trkpt>
      <trkpt lat="50.280144782736897" lon="6.362022589892149">
        <ele>548.02999999999997</ele>
        <time>2017-07-16T14:11:02Z</time>
      </trkpt>
      <trkpt lat="50.280281826853752" lon="6.361968778073788">
        <ele>547.99000000000001</ele>
        <time>2017-07-16T14:11:16Z</time>
      </trkpt>
      <trkpt lat="50.280516352504492" lon="6.361859645694494">
        <ele>546.32000000000005</ele>
        <time>2017-07-16T14:11:32Z</time>
      </trkpt>
      <trkpt lat="50.280745681375265" lon="6.361643727868795">
        <ele>546.36000000000001</ele>
        <time>2017-07-16T14:11:52Z</time>
      </trkpt>
      <trkpt lat="50.280850706622005" lon="6.361535182222724">
        <ele>548.64999999999998</ele>
        <time>2017-07-16T14:12:00Z</time>
      </trkpt>
      <trkpt lat="50.281036784872413" lon="6.361303674057126">
        <ele>548.63</ele>
        <time>2017-07-16T14:12:18Z</time>
      </trkpt>
      <trkpt lat="50.281127141788602" lon="6.36118708178401">
        <ele>548.63</ele>
        <time>2017-07-16T14:12:33Z</time>
      </trkpt>
      <trkpt lat="50.281260414049029" lon="6.361013744026423">
        <ele>548.59000000000003</ele>
        <time>2017-07-16T14:12:48Z</time>
      </trkpt>
      <trkpt lat="50.28135085478425" lon="6.360857840627432">
        <ele>546.20000000000005</ele>
        <time>2017-07-16T14:13:04Z</time>
      </trkpt>
      <trkpt lat="50.281553696841002" lon="6.360742673277855">
        <ele>545.25</ele>
        <time>2017-07-16T14:13:21Z</time>
      </trkpt>
      <trkpt lat="50.281707085669041" lon="6.360746109858155">
        <ele>543.10000000000002</ele>
        <time>2017-07-16T14:13:31Z</time>
      </trkpt>
      <trkpt lat="50.281915459781885" lon="6.360596911981702">
        <ele>542</ele>
        <time>2017-07-16T14:13:47Z</time>
      </trkpt>
      <trkpt lat="50.282151410356164" lon="6.3603276014328">
        <ele>540.35000000000002</ele>
        <time>2017-07-16T14:14:06Z</time>
      </trkpt>
      <trkpt lat="50.282293232157826" lon="6.360070193186402">
        <ele>539.46000000000004</ele>
        <time>2017-07-16T14:14:23Z</time>
      </trkpt>
      <trkpt lat="50.282444274052978" lon="6.359838517382741">
        <ele>537.74000000000001</ele>
        <time>2017-07-16T14:14:39Z</time>
      </trkpt>
      <trkpt lat="50.282472772523761" lon="6.359799038618803">
        <ele>537.74000000000001</ele>
        <time>2017-07-16T14:14:42Z</time>
      </trkpt>
      <trkpt lat="50.282700089737773" lon="6.359648667275906">
        <ele>536</ele>
        <time>2017-07-16T14:14:58Z</time>
      </trkpt>
      <trkpt lat="50.28290125541389" lon="6.359545905143023">
        <ele>534.32000000000005</ele>
        <time>2017-07-16T14:15:14Z</time>
      </trkpt>
      <trkpt lat="50.283122705295682" lon="6.359434761106968">
        <ele>531.89999999999998</ele>
        <time>2017-07-16T14:15:32Z</time>
      </trkpt>
      <trkpt lat="50.283277686685324" lon="6.359374411404133">
        <ele>528.94000000000005</ele>
        <time>2017-07-16T14:15:44Z</time>
      </trkpt>
      <trkpt lat="50.283476170152426" lon="6.359260501340032">
        <ele>528.09000000000003</ele>
        <time>2017-07-16T14:15:59Z</time>
      </trkpt>
      <trkpt lat="50.283644981682301" lon="6.359219178557396">
        <ele>527.17999999999995</ele>
        <time>2017-07-16T14:16:10Z</time>
      </trkpt>
      <trkpt lat="50.283764842897654" lon="6.359036285430193">
        <ele>525.92999999999995</ele>
        <time>2017-07-16T14:16:12Z</time>
      </trkpt>
      <trkpt lat="50.283896941691637" lon="6.358373947441578">
        <ele>525.95000000000005</ele>
        <time>2017-07-16T14:16:16Z</time>
      </trkpt>
      <trkpt lat="50.284148398786783" lon="6.357791991904378">
        <ele>526</ele>
        <time>2017-07-16T14:16:33Z</time>
      </trkpt>
      <trkpt lat="50.284305643290281" lon="6.357490913942456">
        <ele>526.03999999999996</ele>
        <time>2017-07-16T14:16:52Z</time>
      </trkpt>
      <trkpt lat="50.285104271024466" lon="6.35744079016149">
        <ele>526.02999999999997</ele>
        <time>2017-07-16T14:17:07Z</time>
      </trkpt>
      <trkpt lat="50.286016054451466" lon="6.357611361891031">
        <ele>526.04999999999995</ele>
        <time>2017-07-16T14:17:15Z</time>
      </trkpt>
      <trkpt lat="50.287123890593648" lon="6.35811310261488">
        <ele>526.12</ele>
        <time>2017-07-16T14:17:24Z</time>
      </trkpt>
      <trkpt lat="50.288173975422978" lon="6.358333881944418">
        <ele>528.40999999999997</ele>
        <time>2017-07-16T14:17:26Z</time>
      </trkpt>
      <trkpt lat="50.289222719147801" lon="6.358492970466614">
        <ele>529.76999999999998</ele>
        <time>2017-07-16T14:17:30Z</time>
      </trkpt>
      <trkpt lat="50.290448907762766" lon="6.357869356870651">
        <ele>532.89999999999998</ele>
        <time>2017-07-16T14:17:42Z</time>
      </trkpt>
      <trkpt lat="50.291796382516623" lon="6.357611361891031">
        <ele>537.23000000000002</ele>
        <time>2017-07-16T14:17:55Z</time>
      </trkpt>
      <trkpt lat="50.292214220389724" lon="6.357826106250286">
        <ele>537.26999999999998</ele>
        <time>2017-07-16T14:17:56Z</time>
      </trkpt>
      <trkpt lat="50.292456708848476" lon="6.360320644453168">
        <ele>504.39999999999998</ele>
        <time>2017-07-16T14:37:48Z</time>
      </trkpt>
      <trkpt lat="50.292686959728599" lon="6.360218049958348">
        <ele>503.51999999999998</ele>
        <time>2017-07-16T14:38:42Z</time>
      </trkpt>
      <trkpt lat="50.292904134839773" lon="6.35998846963048">
        <ele>503.51999999999998</ele>
        <time>2017-07-16T14:39:01Z</time>
      </trkpt>
      <trkpt lat="50.293107144534588" lon="6.359875062480569">
        <ele>503.51999999999998</ele>
        <time>2017-07-16T14:39:16Z</time>
      </trkpt>
      <trkpt lat="50.293378382921219" lon="6.35969921015203">
        <ele>502.68000000000001</ele>
        <time>2017-07-16T14:39:33Z</time>
      </trkpt>
      <trkpt lat="50.29365842230618" lon="6.359611367806792">
        <ele>502.69999999999999</ele>
        <time>2017-07-16T14:39:51Z</time>
      </trkpt>
      <trkpt lat="50.293845254927874" lon="6.359677417203784">
        <ele>501.56</ele>
        <time>2017-07-16T14:40:06Z</time>
      </trkpt>
      <trkpt lat="50.294010629877448" lon="6.359819155186415">
        <ele>501.56</ele>
        <time>2017-07-16T14:40:20Z</time>
      </trkpt>
      <trkpt lat="50.294206934049726" lon="6.359974052757025">
        <ele>500.69</ele>
        <time>2017-07-16T14:40:35Z</time>
      </trkpt>
      <trkpt lat="50.29431564733386" lon="6.360006825998426">
        <ele>500.69</ele>
        <time>2017-07-16T14:40:45Z</time>
      </trkpt>
      <trkpt lat="50.29445051215589" lon="6.360049825161696">
        <ele>500.69</ele>
        <time>2017-07-16T14:40:59Z</time>
      </trkpt>
      <trkpt lat="50.294454703107476" lon="6.360080083832145">
        <ele>498.67000000000002</ele>
        <time>2017-07-16T14:42:53Z</time>
      </trkpt>
      <trkpt lat="50.294534750282764" lon="6.360156023874879">
        <ele>498.66000000000003</ele>
        <time>2017-07-16T14:43:08Z</time>
      </trkpt>
      <trkpt lat="50.294682858511806" lon="6.360195586457849">
        <ele>498.64999999999998</ele>
        <time>2017-07-16T14:43:17Z</time>
      </trkpt>
      <trkpt lat="50.294768940657377" lon="6.360202375799418">
        <ele>498.66000000000003</ele>
        <time>2017-07-16T14:43:21Z</time>
      </trkpt>
      <trkpt lat="50.294841779395938" lon="6.360191982239485">
        <ele>498.66000000000003</ele>
        <time>2017-07-16T14:43:26Z</time>
      </trkpt>
      <trkpt lat="50.295070521533489" lon="6.360149653628469">
        <ele>498.66000000000003</ele>
        <time>2017-07-16T14:43:41Z</time>
      </trkpt>
      <trkpt lat="50.295315692201257" lon="6.360141942277551">
        <ele>496.81999999999999</ele>
        <time>2017-07-16T14:43:57Z</time>
      </trkpt>
      <trkpt lat="50.295452736318111" lon="6.360082263126969">
        <ele>496.82999999999998</ele>
        <time>2017-07-16T14:44:08Z</time>
      </trkpt>
      <trkpt lat="50.295476876199245" lon="6.360037503764033">
        <ele>496.82999999999998</ele>
        <time>2017-07-16T14:44:11Z</time>
      </trkpt>
      <trkpt lat="50.295535884797573" lon="6.359954439103603">
        <ele>496.04000000000002</ele>
        <time>2017-07-16T14:46:21Z</time>
      </trkpt>
      <trkpt lat="50.295772673562169" lon="6.359892161563039">
        <ele>496.04000000000002</ele>
        <time>2017-07-16T14:46:38Z</time>
      </trkpt>
      <trkpt lat="50.295928912237287" lon="6.359842289239168">
        <ele>495.99000000000001</ele>
        <time>2017-07-16T14:46:50Z</time>
      </trkpt>
      <trkpt lat="50.29607274569571" lon="6.359780011698604">
        <ele>495.98000000000002</ele>
        <time>2017-07-16T14:47:02Z</time>
      </trkpt>
      <trkpt lat="50.296126725152135" lon="6.359775569289923">
        <ele>495.99000000000001</ele>
        <time>2017-07-16T14:47:07Z</time>
      </trkpt>
      <trkpt lat="50.296318670734763" lon="6.35973583906889">
        <ele>495.98000000000002</ele>
        <time>2017-07-16T14:47:21Z</time>
      </trkpt>
      <trkpt lat="50.296523775905371" lon="6.359590077772737">
        <ele>496</ele>
        <time>2017-07-16T14:47:33Z</time>
      </trkpt>
      <trkpt lat="50.296711279079318" lon="6.359486812725663">
        <ele>496.02999999999997</ele>
        <time>2017-07-16T14:47:47Z</time>
      </trkpt>
      <trkpt lat="50.296983774751425" lon="6.359359826892614">
        <ele>496</ele>
        <time>2017-07-16T14:48:05Z</time>
      </trkpt>
      <trkpt lat="50.297151077538729" lon="6.359320096671581">
        <ele>494.73000000000002</ele>
        <time>2017-07-16T14:48:17Z</time>
      </trkpt>
      <trkpt lat="50.297376969829202" lon="6.359282629564405">
        <ele>494.79000000000002</ele>
        <time>2017-07-16T14:48:31Z</time>
      </trkpt>
      <trkpt lat="50.297600012272596" lon="6.359106693416834">
        <ele>493.79000000000002</ele>
        <time>2017-07-16T14:48:46Z</time>
      </trkpt>
      <trkpt lat="50.297818528488278" lon="6.359017174690962">
        <ele>493.75999999999999</ele>
        <time>2017-07-16T14:49:01Z</time>
      </trkpt>
      <trkpt lat="50.298029836267233" lon="6.35886755771935">
        <ele>493.73000000000002</ele>
        <time>2017-07-16T14:49:15Z</time>
      </trkpt>
      <trkpt lat="50.298097394406796" lon="6.358789354562759">
        <ele>493.73000000000002</ele>
        <time>2017-07-16T14:49:20Z</time>
      </trkpt>
      <trkpt lat="50.298266876488924" lon="6.35857192799449">
        <ele>493.72000000000003</ele>
        <time>2017-07-16T14:49:34Z</time>
      </trkpt>
      <trkpt lat="50.298444824293256" lon="6.358358943834901">
        <ele>493.75999999999999</ele>
        <time>2017-07-16T14:49:52Z</time>
      </trkpt>
      <trkpt lat="50.298598548397422" lon="6.358019225299358">
        <ele>493.72000000000003</ele>
        <time>2017-07-16T14:50:07Z</time>
      </trkpt>
      <trkpt lat="50.298650432378054" lon="6.357842618599534">
        <ele>493.75999999999999</ele>
        <time>2017-07-16T14:50:13Z</time>
      </trkpt>
      <trkpt lat="50.298685133457184" lon="6.357745639979839">
        <ele>493.76999999999998</ele>
        <time>2017-07-16T14:50:17Z</time>
      </trkpt>
      <trkpt lat="50.29869569465518" lon="6.357648493722081">
        <ele>493.75999999999999</ele>
        <time>2017-07-16T14:50:20Z</time>
      </trkpt>
      <trkpt lat="50.298798875883222" lon="6.357366275042296">
        <ele>492.94</ele>
        <time>2017-07-16T14:50:36Z</time>
      </trkpt>
      <trkpt lat="50.298943044617772" lon="6.357008451595902">
        <ele>492.16000000000003</ele>
        <time>2017-07-16T14:50:52Z</time>
      </trkpt>
      <trkpt lat="50.299171954393387" lon="6.356697650626302">
        <ele>491.22000000000003</ele>
        <time>2017-07-16T14:51:14Z</time>
      </trkpt>
      <trkpt lat="50.299210427328944" lon="6.356622884050012">
        <ele>491.19999999999999</ele>
        <time>2017-07-16T14:51:18Z</time>
      </trkpt>
      <trkpt lat="50.299493400380015" lon="6.356543507426977">
        <ele>491.20999999999998</ele>
        <time>2017-07-16T14:51:45Z</time>
      </trkpt>
      <trkpt lat="50.299665816128254" lon="6.356449211016297">
        <ele>491.22000000000003</ele>
        <time>2017-07-16T14:51:54Z</time>
      </trkpt>
      <trkpt lat="50.30001793988049" lon="6.356365056708455">
        <ele>490.25999999999999</ele>
        <time>2017-07-16T14:52:10Z</time>
      </trkpt>
      <trkpt lat="50.30031306669116" lon="6.356175541877747">
        <ele>490.30000000000001</ele>
        <time>2017-07-16T14:52:21Z</time>
      </trkpt>
      <trkpt lat="50.30060576274991" lon="6.355894077569246">
        <ele>490.31999999999999</ele>
        <time>2017-07-16T14:52:33Z</time>
      </trkpt>
      <trkpt lat="50.300891250371933" lon="6.355684949085116">
        <ele>490.31999999999999</ele>
        <time>2017-07-16T14:52:44Z</time>
      </trkpt>
      <trkpt lat="50.301175061613321" lon="6.355491913855076">
        <ele>489.57999999999998</ele>
        <time>2017-07-16T14:52:54Z</time>
      </trkpt>
      <trkpt lat="50.301238596439362" lon="6.355445729568601">
        <ele>489.56999999999999</ele>
        <time>2017-07-16T14:52:57Z</time>
      </trkpt>
      <trkpt lat="50.301450155675411" lon="6.355332490056753">
        <ele>489.56999999999999</ele>
        <time>2017-07-16T14:53:09Z</time>
      </trkpt>
      <trkpt lat="50.30158007517457" lon="6.355271302163601">
        <ele>489.56999999999999</ele>
        <time>2017-07-16T14:53:14Z</time>
      </trkpt>
      <trkpt lat="50.301677640527487" lon="6.355255376547575">
        <ele>489.55000000000001</ele>
        <time>2017-07-16T14:53:18Z</time>
      </trkpt>
      <trkpt lat="50.301948208361864" lon="6.355179855599999">
        <ele>489.56</ele>
        <time>2017-07-16T14:53:29Z</time>
      </trkpt>
      <trkpt lat="50.30210193246603" lon="6.355099137872458">
        <ele>489.56</ele>
        <time>2017-07-16T14:53:36Z</time>
      </trkpt>
      <trkpt lat="50.302336541935802" lon="6.355011882260442">
        <ele>489.51999999999998</ele>
        <time>2017-07-16T14:53:52Z</time>
      </trkpt>
      <trkpt lat="50.302821267396212" lon="6.35502353310585">
        <ele>487.57999999999998</ele>
        <time>2017-07-16T14:54:24Z</time>
      </trkpt>
      <trkpt lat="50.303055038675666" lon="6.354903085157275">
        <ele>487.58999999999997</ele>
        <time>2017-07-16T14:54:38Z</time>
      </trkpt>
      <trkpt lat="50.303093511611223" lon="6.354880956932902">
        <ele>487.60000000000002</ele>
        <time>2017-07-16T14:54:41Z</time>
      </trkpt>
      <trkpt lat="50.303114550188184" lon="6.354856649413705">
        <ele>487.63</ele>
        <time>2017-07-16T14:54:46Z</time>
      </trkpt>
      <trkpt lat="50.303294593468308" lon="6.354964943602681">
        <ele>487.62</ele>
        <time>2017-07-16T14:54:59Z</time>
      </trkpt>
      <trkpt lat="50.303300460800529" lon="6.354977851733565">
        <ele>487.60000000000002</ele>
        <time>2017-07-16T14:55:00Z</time>
      </trkpt>
      <trkpt lat="50.303342202678323" lon="6.355028059333563">
        <ele>489.97000000000003</ele>
        <time>2017-07-16T14:55:04Z</time>
      </trkpt>
      <trkpt lat="50.303488718345761" lon="6.355236265808344">
        <ele>489.94</ele>
        <time>2017-07-16T14:55:17Z</time>
      </trkpt>
      <trkpt lat="50.303646633401513" lon="6.355459894984961">
        <ele>489.95999999999998</ele>
        <time>2017-07-16T14:55:32Z</time>
      </trkpt>
      <trkpt lat="50.30378527007997" lon="6.355652008205652">
        <ele>490.74000000000001</ele>
        <time>2017-07-16T14:55:45Z</time>
      </trkpt>
      <trkpt lat="50.303814606741071" lon="6.355674052610993">
        <ele>490.74000000000001</ele>
        <time>2017-07-16T14:55:47Z</time>
      </trkpt>
      <trkpt lat="50.303920134902" lon="6.355799864977598">
        <ele>490.75</ele>
        <time>2017-07-16T14:55:54Z</time>
      </trkpt>
      <trkpt lat="50.304214674979448" lon="6.356107061728835">
        <ele>490.72000000000003</ele>
        <time>2017-07-16T14:56:22Z</time>
      </trkpt>
      <trkpt lat="50.304379714652896" lon="6.356282662600279">
        <ele>490.74000000000001</ele>
        <time>2017-07-16T14:56:33Z</time>
      </trkpt>
      <trkpt lat="50.304584568366408" lon="6.356531018391252">
        <ele>490.73000000000002</ele>
        <time>2017-07-16T14:56:45Z</time>
      </trkpt>
      <trkpt lat="50.30470141209662" lon="6.356676444411278">
        <ele>488.39999999999998</ele>
        <time>2017-07-16T14:56:52Z</time>
      </trkpt>
      <trkpt lat="50.305237183347344" lon="6.357607003301382">
        <ele>490.87</ele>
        <time>2017-07-16T14:57:21Z</time>
      </trkpt>
      <trkpt lat="50.305473301559687" lon="6.358273448422551">
        <ele>493.38</ele>
        <time>2017-07-16T14:57:42Z</time>
      </trkpt>
      <trkpt lat="50.305668599903584" lon="6.35855826549232">
        <ele>490.88</ele>
        <time>2017-07-16T14:57:55Z</time>
      </trkpt>
      <trkpt lat="50.305911842733622" lon="6.358759766444564">
        <ele>490.00999999999999</ele>
        <time>2017-07-16T14:58:08Z</time>
      </trkpt>
      <trkpt lat="50.306008150801063" lon="6.358908545225859">
        <ele>489.05000000000001</ele>
        <time>2017-07-16T14:58:14Z</time>
      </trkpt>
      <trkpt lat="50.306049305945635" lon="6.358952717855573">
        <ele>489.04000000000002</ele>
        <time>2017-07-16T14:58:17Z</time>
      </trkpt>
      <trkpt lat="50.306196324527264" lon="6.359100323170424">
        <ele>488.22000000000003</ele>
        <time>2017-07-16T14:58:26Z</time>
      </trkpt>
      <trkpt lat="50.306344851851463" lon="6.35927994735539">
        <ele>487.39999999999998</ele>
        <time>2017-07-16T14:58:36Z</time>
      </trkpt>
      <trkpt lat="50.306442333385348" lon="6.359448842704296">
        <ele>486.44999999999999</ele>
        <time>2017-07-16T14:58:44Z</time>
      </trkpt>
      <trkpt lat="50.306563032791018" lon="6.359645063057542">
        <ele>485.44</ele>
        <time>2017-07-16T14:58:54Z</time>
      </trkpt>
      <trkpt lat="50.30659094452858" lon="6.359706837683916">
        <ele>485.44999999999999</ele>
        <time>2017-07-16T14:58:57Z</time>
      </trkpt>
      <trkpt lat="50.306795630604029" lon="6.359703736379743">
        <ele>485.52999999999997</ele>
        <time>2017-07-16T14:59:22Z</time>
      </trkpt>
      <trkpt lat="50.306858578696847" lon="6.359607595950365">
        <ele>485.45999999999998</ele>
        <time>2017-07-16T14:59:29Z</time>
      </trkpt>
      <trkpt lat="50.306982966139913" lon="6.359311798587441">
        <ele>485.49000000000001</ele>
        <time>2017-07-16T14:59:47Z</time>
      </trkpt>
      <trkpt lat="50.307043986395001" lon="6.359174167737365">
        <ele>485.5</ele>
        <time>2017-07-16T14:59:54Z</time>
      </trkpt>
      <trkpt lat="50.307168290019035" lon="6.358867222443223">
        <ele>485.47000000000003</ele>
        <time>2017-07-16T15:00:09Z</time>
      </trkpt>
      <trkpt lat="50.307312626391649" lon="6.358691873028874">
        <ele>485.5</ele>
        <time>2017-07-16T15:00:23Z</time>
      </trkpt>
      <trkpt lat="50.307455789297819" lon="6.358533371239901">
        <ele>485.51999999999998</ele>
        <time>2017-07-16T15:00:35Z</time>
      </trkpt>
      <trkpt lat="50.307502895593643" lon="6.358503950759769">
        <ele>485.51999999999998</ele>
        <time>2017-07-16T15:00:39Z</time>
      </trkpt>
      <trkpt lat="50.307621415704489" lon="6.358479391783476">
        <ele>484.31</ele>
        <time>2017-07-16T15:00:48Z</time>
      </trkpt>
      <trkpt lat="50.307772122323513" lon="6.358451563864946">
        <ele>484.31999999999999</ele>
        <time>2017-07-16T15:00:59Z</time>
      </trkpt>
      <trkpt lat="50.307868346571922" lon="6.358410660177469">
        <ele>487.75999999999999</ele>
        <time>2017-07-16T15:01:05Z</time>
      </trkpt>
      <trkpt lat="50.307879997417331" lon="6.358417784795165">
        <ele>487.75999999999999</ele>
        <time>2017-07-16T15:01:06Z</time>
      </trkpt>
      <trkpt lat="50.308064147830009" lon="6.358344694599509">
        <ele>487.79000000000002</ele>
        <time>2017-07-16T15:01:19Z</time>
      </trkpt>
      <trkpt lat="50.308107566088438" lon="6.358326841145754">
        <ele>487.80000000000001</ele>
        <time>2017-07-16T15:01:22Z</time>
      </trkpt>
      <trkpt lat="50.308195156976581" lon="6.358297085389495">
        <ele>487.81</ele>
        <time>2017-07-16T15:01:27Z</time>
      </trkpt>
      <trkpt lat="50.308377798646688" lon="6.358235143125057">
        <ele>489.52999999999997</ele>
        <time>2017-07-16T15:01:40Z</time>
      </trkpt>
      <trkpt lat="50.308448793366551" lon="6.358173033222556">
        <ele>489.54000000000002</ele>
        <time>2017-07-16T15:01:45Z</time>
      </trkpt>
      <trkpt lat="50.30867544002831" lon="6.358020817860961">
        <ele>491.10000000000002</ele>
        <time>2017-07-16T15:02:02Z</time>
      </trkpt>
      <trkpt lat="50.308756325393915" lon="6.357973543927074">
        <ele>492.05000000000001</ele>
        <time>2017-07-16T15:02:07Z</time>
      </trkpt>
      <trkpt lat="50.308848861604929" lon="6.357854101806879">
        <ele>492.82999999999998</ele>
        <time>2017-07-16T15:02:13Z</time>
      </trkpt>
      <trkpt lat="50.309055475518107" lon="6.357638267800212">
        <ele>494.50999999999999</ele>
        <time>2017-07-16T15:02:28Z</time>
      </trkpt>
      <trkpt lat="50.309125212952495" lon="6.35754581540823">
        <ele>495.33999999999997</ele>
        <time>2017-07-16T15:02:34Z</time>
      </trkpt>
      <trkpt lat="50.309273069724441" lon="6.357410112395883">
        <ele>496.88999999999999</ele>
        <time>2017-07-16T15:02:47Z</time>
      </trkpt>
      <trkpt lat="50.309582697227597" lon="6.357179945334792">
        <ele>499.45999999999998</ele>
        <time>2017-07-16T15:03:06Z</time>
      </trkpt>
      <trkpt lat="50.309812696650624" lon="6.356965871527791">
        <ele>501.14999999999998</ele>
        <time>2017-07-16T15:03:21Z</time>
      </trkpt>
      <trkpt lat="50.30996642075479" lon="6.356757748872042">
        <ele>502.79000000000002</ele>
        <time>2017-07-16T15:03:35Z</time>
      </trkpt>
      <trkpt lat="50.310182757675648" lon="6.356541328132153">
        <ele>505.31</ele>
        <time>2017-07-16T15:03:49Z</time>
      </trkpt>
      <trkpt lat="50.310629429295659" lon="6.356048053130508">
        <ele>510.45999999999998</ele>
        <time>2017-07-16T15:04:22Z</time>
      </trkpt>
      <trkpt lat="50.310890693217516" lon="6.355388062074781">
        <ele>513.19000000000005</ele>
        <time>2017-07-16T15:04:54Z</time>
      </trkpt>
      <trkpt lat="50.311053972691298" lon="6.355113973841071">
        <ele>514.82000000000005</ele>
        <time>2017-07-16T15:05:09Z</time>
      </trkpt>
      <trkpt lat="50.311238542199135" lon="6.35489160194993">
        <ele>516.35000000000002</ele>
        <time>2017-07-16T15:05:24Z</time>
      </trkpt>
      <trkpt lat="50.311415316537023" lon="6.354775177314878">
        <ele>518.05999999999995</ele>
        <time>2017-07-16T15:05:38Z</time>
      </trkpt>
      <trkpt lat="50.311739947646856" lon="6.354948515072465">
        <ele>520.49000000000001</ele>
        <time>2017-07-16T15:05:56Z</time>
      </trkpt>
      <trkpt lat="50.31197807751596" lon="6.354941725730896">
        <ele>517.98000000000002</ele>
        <time>2017-07-16T15:06:11Z</time>
      </trkpt>
      <trkpt lat="50.31225417740643" lon="6.354949604719877">
        <ele>516.05999999999995</ele>
        <time>2017-07-16T15:06:29Z</time>
      </trkpt>
      <trkpt lat="50.313084991648793" lon="6.355480598285794">
        <ele>506.39999999999998</ele>
        <time>2017-07-16T15:07:43Z</time>
      </trkpt>
      <trkpt lat="50.313286492601037" lon="6.355691654607654">
        <ele>504</ele>
        <time>2017-07-16T15:08:01Z</time>
      </trkpt>
      <trkpt lat="50.313492268323898" lon="6.355916205793619">
        <ele>500.88</ele>
        <time>2017-07-16T15:08:19Z</time>
      </trkpt>
      <trkpt lat="50.313693014904857" lon="6.356133380904794">
        <ele>498.33999999999997</ele>
        <time>2017-07-16T15:08:35Z</time>
      </trkpt>
      <trkpt lat="50.313871214166284" lon="6.356289954856038">
        <ele>494.74000000000001</ele>
        <time>2017-07-16T15:08:50Z</time>
      </trkpt>
      <trkpt lat="50.314088892191648" lon="6.356474189087749">
        <ele>491.35000000000002</ele>
        <time>2017-07-16T15:09:07Z</time>
      </trkpt>
      <trkpt lat="50.314284609630704" lon="6.356683485209942">
        <ele>490.31999999999999</ele>
        <time>2017-07-16T15:09:22Z</time>
      </trkpt>
      <trkpt lat="50.314419642090797" lon="6.356926979497075">
        <ele>488.80000000000001</ele>
        <time>2017-07-16T15:09:35Z</time>
      </trkpt>
      <trkpt lat="50.314517207443714" lon="6.357141053304076">
        <ele>488.81</ele>
        <time>2017-07-16T15:09:45Z</time>
      </trkpt>
      <trkpt lat="50.314590884372592" lon="6.357374656945467">
        <ele>488.02999999999997</ele>
        <time>2017-07-16T15:10:00Z</time>
      </trkpt>
      <trkpt lat="50.314726838842034" lon="6.357752680778503">
        <ele>487.10000000000002</ele>
        <time>2017-07-16T15:10:17Z</time>
      </trkpt>
      <trkpt lat="50.314803952351213" lon="6.357901291921735">
        <ele>486.29000000000002</ele>
        <time>2017-07-16T15:10:28Z</time>
      </trkpt>
      <trkpt lat="50.314863212406635" lon="6.357880588620901">
        <ele>484.73000000000002</ele>
        <time>2017-07-16T15:10:32Z</time>
      </trkpt>
      <trkpt lat="50.314905541017652" lon="6.357747567817569">
        <ele>483.98000000000002</ele>
        <time>2017-07-16T15:10:39Z</time>
      </trkpt>
      <trkpt lat="50.314951641485095" lon="6.357611948624253">
        <ele>482.29000000000002</ele>
        <time>2017-07-16T15:10:47Z</time>
      </trkpt>
      <trkpt lat="50.315025569871068" lon="6.357462415471673">
        <ele>480.38999999999999</ele>
        <time>2017-07-16T15:10:59Z</time>
      </trkpt>
      <trkpt lat="50.315236961469054" lon="6.357265776023269">
        <ele>480.44</ele>
        <time>2017-07-16T15:11:15Z</time>
      </trkpt>
      <trkpt lat="50.315439216792583" lon="6.357127390801907">
        <ele>480.45999999999998</ele>
        <time>2017-07-16T15:11:27Z</time>
      </trkpt>
      <trkpt lat="50.315503003075719" lon="6.357057737186551">
        <ele>480.45999999999998</ele>
        <time>2017-07-16T15:11:32Z</time>
      </trkpt>
      <trkpt lat="50.31574641354382" lon="6.356860427185893">
        <ele>480.47000000000003</ele>
        <time>2017-07-16T15:11:48Z</time>
      </trkpt>
      <trkpt lat="50.315823443233967" lon="6.356819439679384">
        <ele>482.82999999999998</ele>
        <time>2017-07-16T15:11:53Z</time>
      </trkpt>
      <trkpt lat="50.315968114882708" lon="6.356724388897419">
        <ele>485.81</ele>
        <time>2017-07-16T15:12:04Z</time>
      </trkpt>
      <trkpt lat="50.31612359918654" lon="6.356582902371883">
        <ele>489.91000000000003</ele>
        <time>2017-07-16T15:12:15Z</time>
      </trkpt>
      <trkpt lat="50.316236335784197" lon="6.356428172439337">
        <ele>493.47000000000003</ele>
        <time>2017-07-16T15:12:28Z</time>
      </trkpt>
      <trkpt lat="50.316260727122426" lon="6.356369247660041">
        <ele>494.45999999999998</ele>
        <time>2017-07-16T15:12:31Z</time>
      </trkpt>
      <trkpt lat="50.31640799716115" lon="6.35604428127408">
        <ele>497.12</ele>
        <time>2017-07-16T15:12:44Z</time>
      </trkpt>
      <trkpt lat="50.316543113440275" lon="6.355555867776275">
        <ele>500.73000000000002</ele>
        <time>2017-07-16T15:13:01Z</time>
      </trkpt>
      <trkpt lat="50.316583598032594" lon="6.355359563603997">
        <ele>502.94999999999999</ele>
        <time>2017-07-16T15:13:10Z</time>
      </trkpt>
      <trkpt lat="50.31662005931139" lon="6.35530692525208">
        <ele>502.89999999999998</ele>
        <time>2017-07-16T15:13:33Z</time>
      </trkpt>
      <trkpt lat="50.316850310191512" lon="6.355257723480463">
        <ele>504.66000000000003</ele>
        <time>2017-07-16T15:13:48Z</time>
      </trkpt>
      <trkpt lat="50.317130433395505" lon="6.355316480621696">
        <ele>508.18000000000001</ele>
        <time>2017-07-16T15:14:06Z</time>
      </trkpt>
      <trkpt lat="50.317296981811523" lon="6.355144148692489">
        <ele>512.04999999999995</ele>
        <time>2017-07-16T15:14:20Z</time>
      </trkpt>
      <trkpt lat="50.317512815818191" lon="6.354969469830394">
        <ele>514.61000000000001</ele>
        <time>2017-07-16T15:14:36Z</time>
      </trkpt>
      <trkpt lat="50.31761297956109" lon="6.354891518130899">
        <ele>516.21000000000004</ele>
        <time>2017-07-16T15:14:43Z</time>
      </trkpt>
      <trkpt lat="50.317757986485958" lon="6.354645676910877">
        <ele>519.98000000000002</ele>
        <time>2017-07-16T15:14:58Z</time>
      </trkpt>
      <trkpt lat="50.317890923470259" lon="6.354443337768316">
        <ele>523.71000000000004</ele>
        <time>2017-07-16T15:15:12Z</time>
      </trkpt>
      <trkpt lat="50.318058477714658" lon="6.354240328073502">
        <ele>526.65999999999997</ele>
        <time>2017-07-16T15:15:25Z</time>
      </trkpt>
      <trkpt lat="50.31825453042984" lon="6.354080904275179">
        <ele>528.14999999999998</ele>
        <time>2017-07-16T15:15:39Z</time>
      </trkpt>
      <trkpt lat="50.318383779376745" lon="6.35401058010757">
        <ele>528.95000000000005</ele>
        <time>2017-07-16T15:15:51Z</time>
      </trkpt>
      <trkpt lat="50.318395597860217" lon="6.354009658098221">
        <ele>528.95000000000005</ele>
        <time>2017-07-16T15:15:53Z</time>
      </trkpt>
      <trkpt lat="50.318467346951365" lon="6.354056429117918">
        <ele>530.64999999999998</ele>
        <time>2017-07-16T15:16:01Z</time>
      </trkpt>
      <trkpt lat="50.318678822368383" lon="6.354576023295522">
        <ele>532.25</ele>
        <time>2017-07-16T15:16:31Z</time>
      </trkpt>
      <trkpt lat="50.319136893376708" lon="6.355995247140527">
        <ele>535.52999999999997</ele>
        <time>2017-07-16T15:17:46Z</time>
      </trkpt>
      <trkpt lat="50.319415172562003" lon="6.35638190433383">
        <ele>536.33000000000004</ele>
        <time>2017-07-16T15:18:03Z</time>
      </trkpt>
      <trkpt lat="50.319556994363666" lon="6.356754396110773">
        <ele>537.13</ele>
        <time>2017-07-16T15:18:20Z</time>
      </trkpt>
      <trkpt lat="50.319873411208391" lon="6.357222944498062">
        <ele>539.67999999999995</ele>
        <time>2017-07-16T15:19:12Z</time>
      </trkpt>
      <trkpt lat="50.319900568574667" lon="6.357203163206577">
        <ele>539.67999999999995</ele>
        <time>2017-07-16T15:19:33Z</time>
      </trkpt>
      <trkpt lat="50.319895539432764" lon="6.357187405228615">
        <ele>539.67999999999995</ele>
        <time>2017-07-16T15:19:56Z</time>
      </trkpt>
      <trkpt lat="50.319862850010395" lon="6.357191344723105">
        <ele>539.67999999999995</ele>
        <time>2017-07-16T15:20:11Z</time>
      </trkpt>
      <trkpt lat="50.319853965193033" lon="6.357179777696729">
        <ele>540.66999999999996</ele>
        <time>2017-07-16T15:20:40Z</time>
      </trkpt>
      <trkpt lat="50.319849941879511" lon="6.357218669727445">
        <ele>537.97000000000003</ele>
        <time>2017-07-16T15:21:22Z</time>
      </trkpt>
      <trkpt lat="50.319860586896539" lon="6.357224034145474">
        <ele>537.97000000000003</ele>
        <time>2017-07-16T15:21:53Z</time>
      </trkpt>
      <trkpt lat="50.319866202771664" lon="6.357180699706078">
        <ele>537.97000000000003</ele>
        <time>2017-07-16T15:22:29Z</time>
      </trkpt>
      <trkpt lat="50.3198625985533" lon="6.357165863737464">
        <ele>537.97000000000003</ele>
        <time>2017-07-16T15:23:07Z</time>
      </trkpt>
    </trkseg>
  </trk>

</gpx>